PWSweather.com
Personal Weather Stations
Station Observations
KNJEWING3
Ewing, NJ 08638

Ewing, NJ 08638

Lat: 40.25193, Lon: -74.77511

Elevation: 106

Station Type: Oregon Scientific WMR968 / SRS100 Solar Radiation Shield. Rain Data At www.cocorahs.org (NJ-MC-11)

Latest ConditionsUpdated 12:13:56 PM EDT Thursday, Mar 23, 2017
Currently Today's Max Today's Min Today's Average
Temperature 37.7°F3.2°C 37.7°F3.2°C 18.9°F-7.3°C 23.6°F-4.7°C
Dew Point 16.7°F-8.5°C 16.7°F-8.5°C 1.6°F-16.9°C 5.3°F-14.8°C
Winds 6.4 mph NE10.3 kmh NE 10.5 mph NNE16.9 kmh NNE - 2.3 mph 3.7 kmh
Wind Gusts 8.1 mph13.0 kmh 13.2 mph21.2 kmh - -
Humidity 42% 46% 42% 45%
Pressure 30.71 in1040.0 mb 30.71 in1040.0 mb 30.56 in1034.9 mb -
Hour Temp Dew Point Humidity Winds Wind Gusts Pressure Precip Precip Rate Daily Precip Total
12:13 PM 37.5°F3.1°C 16.5°F-8.6°C 42% 3.2 mph N5.1 kmh N 9.7 mph15.6 kmh 30.71 in1040.0 mb 0.00 in0.0 mm 0.00 in0.0 mm 0.00 in0.0 mm
12:12 PM 37.5°F3.1°C 16.5°F-8.6°C 42% 3.8 mph NNW6.1 kmh NNW 9.7 mph15.6 kmh 30.71 in1040.0 mb 0.00 in0.0 mm 0.00 in0.0 mm 0.00 in0.0 mm
12:11 PM 37.3°F2.9°C 16.3°F-8.7°C 42% Calm Calm 9.7 mph15.6 kmh 30.71 in1040.0 mb 0.00 in0.0 mm 0.00 in0.0 mm 0.00 in0.0 mm
12:09 PM 37.1°F2.8°C 16.2°F-8.8°C 42% 7.0 mph NE11.3 kmh NE 9.7 mph15.6 kmh 30.71 in1040.0 mb 0.00 in0.0 mm 0.00 in0.0 mm 0.00 in0.0 mm
12:07 PM 37.1°F2.8°C 16.2°F-8.8°C 42% 3.8 mph ENE6.1 kmh ENE 10.5 mph16.9 kmh 30.71 in1040.0 mb 0.00 in0.0 mm 0.00 in0.0 mm 0.00 in0.0 mm
12:06 PM 37.1°F2.8°C 16.2°F-8.8°C 42% 9.1 mph NE14.6 kmh NE 10.5 mph16.9 kmh 30.71 in1040.0 mb 0.00 in0.0 mm 0.00 in0.0 mm 0.00 in0.0 mm
12:05 PM 36.9°F2.7°C 16.0°F-8.9°C 42% 4.3 mph W6.9 kmh W 10.5 mph16.9 kmh 30.71 in1040.0 mb 0.00 in0.0 mm 0.00 in0.0 mm 0.00 in0.0 mm
12:03 PM 36.9°F2.7°C 16.0°F-8.9°C 42% 6.4 mph N10.3 kmh N 10.5 mph16.9 kmh 30.71 in1040.0 mb 0.00 in0.0 mm 0.00 in0.0 mm 0.00 in0.0 mm
12:02 PM 36.9°F2.7°C 16.0°F-8.9°C 42% 6.4 mph NE10.3 kmh NE 10.5 mph16.9 kmh 30.71 in1040.0 mb 0.00 in0.0 mm 0.00 in0.0 mm 0.00 in0.0 mm
12:00 PM 36.8°F2.7°C 15.8°F-9.0°C 42% 5.9 mph ENE9.5 kmh ENE 9.9 mph15.9 kmh 30.71 in1040.0 mb 0.00 in0.0 mm 0.00 in0.0 mm 0.00 in0.0 mm
11:59 AM 36.4°F2.4°C 15.5°F-9.2°C 42% 5.9 mph NE9.5 kmh NE 9.9 mph15.9 kmh 30.71 in1040.0 mb 0.00 in0.0 mm 0.00 in0.0 mm 0.00 in0.0 mm
11:57 AM 36.2°F2.3°C 15.9°F-8.9°C 43% 3.2 mph NW5.1 kmh NW 9.9 mph15.9 kmh 30.71 in1040.0 mb 0.00 in0.0 mm 0.00 in0.0 mm 0.00 in0.0 mm
11:56 AM 36.2°F2.3°C 15.9°F-8.9°C 43% 5.9 mph NE9.5 kmh NE 9.9 mph15.9 kmh 30.71 in1040.0 mb 0.00 in0.0 mm 0.00 in0.0 mm 0.00 in0.0 mm
11:55 AM 36.2°F2.3°C 15.9°F-8.9°C 43% 6.4 mph NE10.3 kmh NE 9.9 mph15.9 kmh 30.71 in1040.0 mb 0.00 in0.0 mm 0.00 in0.0 mm 0.00 in0.0 mm
11:53 AM 36.2°F2.3°C 15.9°F-8.9°C 43% Calm Calm 7.5 mph12.1 kmh 30.71 in1040.0 mb 0.00 in0.0 mm 0.00 in0.0 mm 0.00 in0.0 mm
11:52 AM 36.0°F2.2°C 15.7°F-9.1°C 43% 4.8 mph NNW7.7 kmh NNW 7.5 mph12.1 kmh 30.71 in1040.0 mb 0.00 in0.0 mm 0.00 in0.0 mm 0.00 in0.0 mm
11:50 AM 35.9°F2.2°C 15.6°F-9.1°C 43% 5.9 mph NE9.5 kmh NE 7.5 mph12.1 kmh 30.71 in1040.0 mb 0.00 in0.0 mm 0.00 in0.0 mm 0.00 in0.0 mm
11:48 AM 35.7°F2.1°C 15.4°F-9.2°C 43% 7.5 mph NE12.1 kmh NE 9.1 mph14.6 kmh 30.71 in1040.0 mb 0.00 in0.0 mm 0.00 in0.0 mm 0.00 in0.0 mm
11:46 AM 35.7°F2.1°C 15.4°F-9.2°C 43% 4.8 mph WSW7.7 kmh WSW 9.1 mph14.6 kmh 30.71 in1040.0 mb 0.00 in0.0 mm 0.00 in0.0 mm 0.00 in0.0 mm
11:45 AM 35.5°F1.9°C 15.2°F-9.3°C 43% 5.9 mph NE9.5 kmh NE 9.1 mph14.6 kmh 30.71 in1040.0 mb 0.00 in0.0 mm 0.00 in0.0 mm 0.00 in0.0 mm
11:44 AM 35.5°F1.9°C 15.2°F-9.3°C 43% 6.4 mph 10.3 kmh 9.1 mph14.6 kmh 30.68 in1038.9 mb 0.00 in0.0 mm 0.00 in0.0 mm 0.00 in0.0 mm
11:42 AM 35.7°F2.1°C 15.4°F-9.2°C 43% 3.2 mph NNW5.1 kmh NNW 7.5 mph12.1 kmh 30.68 in1038.9 mb 0.00 in0.0 mm 0.00 in0.0 mm 0.00 in0.0 mm
11:41 AM 35.5°F1.9°C 15.2°F-9.3°C 43% 7.5 mph NNE12.1 kmh NNE 9.1 mph14.6 kmh 30.68 in1038.9 mb 0.00 in0.0 mm 0.00 in0.0 mm 0.00 in0.0 mm
11:39 AM 35.3°F1.8°C 15.1°F-9.4°C 43% 3.2 mph N5.1 kmh N 9.9 mph15.9 kmh 30.68 in1038.9 mb 0.00 in0.0 mm 0.00 in0.0 mm 0.00 in0.0 mm
11:38 AM 35.1°F1.7°C 14.9°F-9.5°C 43% 3.8 mph WSW6.1 kmh WSW 9.9 mph15.9 kmh 30.68 in1038.9 mb 0.00 in0.0 mm 0.00 in0.0 mm 0.00 in0.0 mm
11:36 AM 35.0°F1.7°C 14.7°F-9.6°C 43% 6.4 mph NW10.3 kmh NW 9.9 mph15.9 kmh 30.68 in1038.9 mb 0.00 in0.0 mm 0.00 in0.0 mm 0.00 in0.0 mm
11:35 AM 34.8°F1.6°C 14.6°F-9.7°C 43% 3.8 mph N6.1 kmh N 9.9 mph15.9 kmh 30.68 in1038.9 mb 0.00 in0.0 mm 0.00 in0.0 mm 0.00 in0.0 mm
11:34 AM 34.8°F1.6°C 14.6°F-9.7°C 43% 7.5 mph N12.1 kmh N 9.9 mph15.9 kmh 30.68 in1038.9 mb 0.00 in0.0 mm 0.00 in0.0 mm 0.00 in0.0 mm
11:32 AM 34.8°F1.6°C 14.6°F-9.7°C 43% 9.1 mph N14.6 kmh N 9.1 mph14.6 kmh 30.68 in1038.9 mb 0.00 in0.0 mm 0.00 in0.0 mm 0.00 in0.0 mm
11:31 AM 34.8°F1.6°C 14.6°F-9.7°C 43% 3.2 mph NNW5.1 kmh NNW 8.1 mph13.0 kmh 30.68 in1038.9 mb 0.00 in0.0 mm 0.00 in0.0 mm 0.00 in0.0 mm
11:29 AM 34.6°F1.4°C 14.4°F-9.8°C 43% 4.8 mph N7.7 kmh N 8.1 mph13.0 kmh 30.68 in1038.9 mb 0.00 in0.0 mm 0.00 in0.0 mm 0.00 in0.0 mm
11:28 AM 34.4°F1.3°C 14.3°F-9.8°C 43% 4.3 mph N6.9 kmh N 8.1 mph13.0 kmh 30.71 in1040.0 mb 0.00 in0.0 mm 0.00 in0.0 mm 0.00 in0.0 mm
11:27 AM 34.6°F1.4°C 14.4°F-9.8°C 43% 4.8 mph NW7.7 kmh NW 6.4 mph10.3 kmh 30.71 in1040.0 mb 0.00 in0.0 mm 0.00 in0.0 mm 0.00 in0.0 mm
11:26 AM 34.6°F1.4°C 14.4°F-9.8°C 43% 4.3 mph NNW6.9 kmh NNW 7.0 mph11.3 kmh 30.71 in1040.0 mb 0.00 in0.0 mm 0.00 in0.0 mm 0.00 in0.0 mm
11:24 AM 34.8°F1.6°C 14.6°F-9.7°C 43% 3.8 mph W6.1 kmh W 7.5 mph12.1 kmh 30.71 in1040.0 mb 0.00 in0.0 mm 0.00 in0.0 mm 0.00 in0.0 mm
11:22 AM 34.8°F1.6°C 14.6°F-9.7°C 43% Calm Calm 7.5 mph12.1 kmh 30.71 in1040.0 mb 0.00 in0.0 mm 0.00 in0.0 mm 0.00 in0.0 mm
11:21 AM 34.8°F1.6°C 14.6°F-9.7°C 43% Calm Calm 7.5 mph12.1 kmh 30.71 in1040.0 mb 0.00 in0.0 mm 0.00 in0.0 mm 0.00 in0.0 mm
11:20 AM 34.6°F1.4°C 14.4°F-9.8°C 43% 6.4 mph WNW10.3 kmh WNW 7.5 mph12.1 kmh 30.71 in1040.0 mb 0.00 in0.0 mm 0.00 in0.0 mm 0.00 in0.0 mm
11:18 AM 34.4°F1.3°C 14.3°F-9.8°C 43% 4.3 mph 6.9 kmh 7.5 mph12.1 kmh 30.71 in1040.0 mb 0.00 in0.0 mm 0.00 in0.0 mm 0.00 in0.0 mm
11:17 AM 34.1°F1.2°C 13.9°F-10.1°C 43% 4.3 mph N6.9 kmh N 10.5 mph16.9 kmh 30.71 in1040.0 mb 0.00 in0.0 mm 0.00 in0.0 mm 0.00 in0.0 mm
11:15 AM 34.1°F1.2°C 13.9°F-10.1°C 43% 3.8 mph NE6.1 kmh NE 10.5 mph16.9 kmh 30.71 in1040.0 mb 0.00 in0.0 mm 0.00 in0.0 mm 0.00 in0.0 mm
11:13 AM 34.1°F1.2°C 13.9°F-10.1°C 43% 4.3 mph NNE6.9 kmh NNE 10.5 mph16.9 kmh 30.71 in1040.0 mb 0.00 in0.0 mm 0.00 in0.0 mm 0.00 in0.0 mm
11:11 AM 33.9°F1.1°C 13.8°F-10.1°C 43% 3.2 mph N5.1 kmh N 10.5 mph16.9 kmh 30.71 in1040.0 mb 0.00 in0.0 mm 0.00 in0.0 mm 0.00 in0.0 mm
11:10 AM 34.1°F1.2°C 13.9°F-10.1°C 43% 10.5 mph N16.9 kmh N 10.5 mph16.9 kmh 30.71 in1040.0 mb 0.00 in0.0 mm 0.00 in0.0 mm 0.00 in0.0 mm
11:08 AM 34.1°F1.2°C 13.9°F-10.1°C 43% 4.3 mph N6.9 kmh N 8.1 mph13.0 kmh 30.71 in1040.0 mb 0.00 in0.0 mm 0.00 in0.0 mm 0.00 in0.0 mm
11:06 AM 34.2°F1.2°C 14.1°F-9.9°C 43% 3.2 mph ENE5.1 kmh ENE 7.5 mph12.1 kmh 30.71 in1040.0 mb 0.00 in0.0 mm 0.00 in0.0 mm 0.00 in0.0 mm
11:05 AM 34.2°F1.2°C 14.1°F-9.9°C 43% 6.4 mph NE10.3 kmh NE 7.0 mph11.3 kmh 30.71 in1040.0 mb 0.00 in0.0 mm 0.00 in0.0 mm 0.00 in0.0 mm
11:03 AM 33.9°F1.1°C 13.8°F-10.1°C 43% 3.2 mph N5.1 kmh N 6.4 mph10.3 kmh 30.71 in1040.0 mb 0.00 in0.0 mm 0.00 in0.0 mm 0.00 in0.0 mm
11:01 AM 33.9°F1.1°C 13.8°F-10.1°C 43% 4.3 mph NE6.9 kmh NE 9.1 mph14.6 kmh 30.71 in1040.0 mb 0.00 in0.0 mm 0.00 in0.0 mm 0.00 in0.0 mm
11:00 AM 33.5°F0.8°C 13.4°F-10.3°C 43% 3.2 mph NNW5.1 kmh NNW 9.1 mph14.6 kmh 30.71 in1040.0 mb 0.00 in0.0 mm 0.00 in0.0 mm 0.00 in0.0 mm
10:59 AM 33.3°F0.7°C 13.3°F-10.4°C 43% Calm Calm 9.1 mph14.6 kmh 30.71 in1040.0 mb 0.00 in0.0 mm 0.00 in0.0 mm 0.00 in0.0 mm
10:57 AM 33.5°F0.8°C 13.4°F-10.3°C 43% 4.3 mph NNW6.9 kmh NNW 9.1 mph14.6 kmh 30.71 in1040.0 mb 0.00 in0.0 mm 0.00 in0.0 mm 0.00 in0.0 mm
10:56 AM 33.5°F0.8°C 13.4°F-10.3°C 43% 6.4 mph NNW10.3 kmh NNW 9.1 mph14.6 kmh 30.71 in1040.0 mb 0.00 in0.0 mm 0.00 in0.0 mm 0.00 in0.0 mm
10:54 AM 33.5°F0.8°C 13.4°F-10.3°C 43% 7.5 mph N12.1 kmh N 13.2 mph21.2 kmh 30.71 in1040.0 mb 0.00 in0.0 mm 0.00 in0.0 mm 0.00 in0.0 mm
10:53 AM 33.7°F0.9°C 13.6°F-10.2°C 43% 8.6 mph NE13.8 kmh NE 13.2 mph21.2 kmh 30.71 in1040.0 mb 0.00 in0.0 mm 0.00 in0.0 mm 0.00 in0.0 mm
10:52 AM 33.9°F1.1°C 13.8°F-10.1°C 43% 4.8 mph 7.7 kmh 13.2 mph21.2 kmh 30.71 in1040.0 mb 0.00 in0.0 mm 0.00 in0.0 mm 0.00 in0.0 mm
10:50 AM 33.9°F1.1°C 13.8°F-10.1°C 43% 5.9 mph NW9.5 kmh NW 13.2 mph21.2 kmh 30.71 in1040.0 mb 0.00 in0.0 mm 0.00 in0.0 mm 0.00 in0.0 mm
10:49 AM 33.9°F1.1°C 13.8°F-10.1°C 43% 7.5 mph NNE12.1 kmh NNE 13.2 mph21.2 kmh 30.71 in1040.0 mb 0.00 in0.0 mm 0.00 in0.0 mm 0.00 in0.0 mm
10:47 AM 33.9°F1.1°C 13.8°F-10.1°C 43% 9.1 mph NE14.6 kmh NE 9.1 mph14.6 kmh 30.71 in1040.0 mb 0.00 in0.0 mm 0.00 in0.0 mm 0.00 in0.0 mm
10:46 AM 33.9°F1.1°C 13.8°F-10.1°C 43% 7.0 mph N11.3 kmh N 9.1 mph14.6 kmh 30.71 in1040.0 mb 0.00 in0.0 mm 0.00 in0.0 mm 0.00 in0.0 mm
10:45 AM 33.5°F0.8°C 13.4°F-10.3°C 43% 3.2 mph NE5.1 kmh NE 9.1 mph14.6 kmh 30.71 in1040.0 mb 0.00 in0.0 mm 0.00 in0.0 mm 0.00 in0.0 mm
10:43 AM 33.5°F0.8°C 13.4°F-10.3°C 43% Calm Calm 9.1 mph14.6 kmh 30.71 in1040.0 mb 0.00 in0.0 mm 0.00 in0.0 mm 0.00 in0.0 mm
10:42 AM 33.3°F0.7°C 13.3°F-10.4°C 43% 4.3 mph NW6.9 kmh NW 9.1 mph14.6 kmh 30.71 in1040.0 mb 0.00 in0.0 mm 0.00 in0.0 mm 0.00 in0.0 mm
10:40 AM 33.3°F0.7°C 13.3°F-10.4°C 43% 3.8 mph NW6.1 kmh NW 9.1 mph14.6 kmh 30.71 in1040.0 mb 0.00 in0.0 mm 0.00 in0.0 mm 0.00 in0.0 mm
10:39 AM 33.0°F0.6°C 12.9°F-10.6°C 43% 3.2 mph NW5.1 kmh NW 6.4 mph10.3 kmh 30.71 in1040.0 mb 0.00 in0.0 mm 0.00 in0.0 mm 0.00 in0.0 mm
10:38 AM 33.0°F0.6°C 12.9°F-10.6°C 43% 5.9 mph ENE9.5 kmh ENE 9.7 mph15.6 kmh 30.71 in1040.0 mb 0.00 in0.0 mm 0.00 in0.0 mm 0.00 in0.0 mm
10:37 AM 32.8°F0.4°C 12.8°F-10.7°C 43% Calm Calm 9.7 mph15.6 kmh 30.71 in1040.0 mb 0.00 in0.0 mm 0.00 in0.0 mm 0.00 in0.0 mm
10:36 AM 32.6°F0.3°C 12.6°F-10.8°C 43% Calm Calm 9.7 mph15.6 kmh 30.71 in1040.0 mb 0.00 in0.0 mm 0.00 in0.0 mm 0.00 in0.0 mm
10:35 AM 32.6°F0.3°C 12.6°F-10.8°C 43% Calm Calm 9.7 mph15.6 kmh 30.71 in1040.0 mb 0.00 in0.0 mm 0.00 in0.0 mm 0.00 in0.0 mm
10:33 AM 32.6°F0.3°C 12.6°F-10.8°C 43% 5.9 mph NNW9.5 kmh NNW 9.7 mph15.6 kmh 30.71 in1040.0 mb 0.00 in0.0 mm 0.00 in0.0 mm 0.00 in0.0 mm
10:32 AM 32.6°F0.3°C 12.6°F-10.8°C 43% 6.4 mph N10.3 kmh N 9.7 mph15.6 kmh 30.71 in1040.0 mb 0.00 in0.0 mm 0.00 in0.0 mm 0.00 in0.0 mm
10:31 AM 32.4°F0.2°C 12.5°F-10.8°C 43% Calm Calm 9.1 mph14.6 kmh 30.71 in1040.0 mb 0.00 in0.0 mm 0.00 in0.0 mm 0.00 in0.0 mm
10:30 AM 32.4°F0.2°C 12.5°F-10.8°C 43% 4.3 mph 6.9 kmh 9.1 mph14.6 kmh 30.71 in1040.0 mb 0.00 in0.0 mm 0.00 in0.0 mm 0.00 in0.0 mm
10:28 AM 32.1°F0.1°C 12.1°F-11.1°C 43% 4.8 mph N7.7 kmh N 10.5 mph16.9 kmh 30.71 in1040.0 mb 0.00 in0.0 mm 0.00 in0.0 mm 0.00 in0.0 mm
10:26 AM 31.9°F-0.1°C 12.0°F-11.1°C 43% 9.1 mph N14.6 kmh N 10.5 mph16.9 kmh 30.71 in1040.0 mb 0.00 in0.0 mm 0.00 in0.0 mm 0.00 in0.0 mm
10:25 AM 31.7°F-0.2°C 11.8°F-11.2°C 43% 6.4 mph NNE10.3 kmh NNE 10.5 mph16.9 kmh 30.71 in1040.0 mb 0.00 in0.0 mm 0.00 in0.0 mm 0.00 in0.0 mm
10:24 AM 31.5°F-0.3°C 11.6°F-11.3°C 43% Calm Calm 12.1 mph19.5 kmh 30.71 in1040.0 mb 0.00 in0.0 mm 0.00 in0.0 mm 0.00 in0.0 mm
10:22 AM 31.2°F-0.4°C 11.3°F-11.5°C 43% 6.4 mph ENE10.3 kmh ENE 12.1 mph19.5 kmh 30.71 in1040.0 mb 0.00 in0.0 mm 0.00 in0.0 mm 0.00 in0.0 mm
10:21 AM 31.0°F-0.6°C 11.1°F-11.6°C 43% 10.5 mph NNE16.9 kmh NNE 12.1 mph19.5 kmh 30.71 in1040.0 mb 0.00 in0.0 mm 0.00 in0.0 mm 0.00 in0.0 mm
10:20 AM 31.0°F-0.6°C 11.1°F-11.6°C 43% 4.8 mph 7.7 kmh 12.1 mph19.5 kmh 30.71 in1040.0 mb 0.00 in0.0 mm 0.00 in0.0 mm 0.00 in0.0 mm
10:18 AM 31.0°F-0.6°C 11.1°F-11.6°C 43% 7.5 mph NE12.1 kmh NE 9.9 mph15.9 kmh 30.71 in1040.0 mb 0.00 in0.0 mm 0.00 in0.0 mm 0.00 in0.0 mm
10:17 AM 31.0°F-0.6°C 11.1°F-11.6°C 43% 3.2 mph NE5.1 kmh NE 7.5 mph12.1 kmh 30.71 in1040.0 mb 0.00 in0.0 mm 0.00 in0.0 mm 0.00 in0.0 mm
10:15 AM 30.8°F-0.7°C 11.0°F-11.7°C 43% 6.4 mph NW10.3 kmh NW 9.1 mph14.6 kmh 30.71 in1040.0 mb 0.00 in0.0 mm 0.00 in0.0 mm 0.00 in0.0 mm
10:14 AM 30.6°F-0.8°C 10.8°F-11.8°C 43% 2.7 mph NNW4.3 kmh NNW 9.1 mph14.6 kmh 30.71 in1040.0 mb 0.00 in0.0 mm 0.00 in0.0 mm 0.00 in0.0 mm
10:12 AM 30.3°F-0.9°C 10.5°F-11.9°C 43% 6.4 mph NW10.3 kmh NW 9.1 mph14.6 kmh 30.71 in1040.0 mb 0.00 in0.0 mm 0.00 in0.0 mm 0.00 in0.0 mm
10:11 AM 30.1°F-1.1°C 10.3°F-12.1°C 43% 6.4 mph NW10.3 kmh NW 9.1 mph14.6 kmh 30.71 in1040.0 mb 0.00 in0.0 mm 0.00 in0.0 mm 0.00 in0.0 mm
10:10 AM 29.9°F-1.2°C 10.2°F-12.1°C 43% 3.8 mph WNW6.1 kmh WNW 9.1 mph14.6 kmh 30.71 in1040.0 mb 0.00 in0.0 mm 0.00 in0.0 mm 0.00 in0.0 mm
10:08 AM 29.7°F-1.3°C 10.0°F-12.2°C 43% Calm Calm 7.5 mph12.1 kmh 30.71 in1040.0 mb 0.00 in0.0 mm 0.00 in0.0 mm 0.00 in0.0 mm
10:07 AM 29.2°F-1.6°C 10.0°F-12.2°C 44% Calm Calm 9.9 mph15.9 kmh 30.71 in1040.0 mb 0.00 in0.0 mm 0.00 in0.0 mm 0.00 in0.0 mm
10:05 AM 29.0°F-1.7°C 9.9°F-12.3°C 44% 5.9 mph NW9.5 kmh NW 9.9 mph15.9 kmh 30.71 in1040.0 mb 0.00 in0.0 mm 0.00 in0.0 mm 0.00 in0.0 mm
10:04 AM 28.8°F-1.8°C 9.7°F-12.4°C 44% 7.5 mph NNE12.1 kmh NNE 9.9 mph15.9 kmh 30.71 in1040.0 mb 0.00 in0.0 mm 0.00 in0.0 mm 0.00 in0.0 mm
10:03 AM 28.7°F-1.8°C 9.5°F-12.5°C 44% 3.2 mph N5.1 kmh N 9.9 mph15.9 kmh 30.71 in1040.0 mb 0.00 in0.0 mm 0.00 in0.0 mm 0.00 in0.0 mm
10:01 AM 28.5°F-1.9°C 9.4°F-12.6°C 44% 4.3 mph N6.9 kmh N 9.9 mph15.9 kmh 30.71 in1040.0 mb 0.00 in0.0 mm 0.00 in0.0 mm 0.00 in0.0 mm
10:00 AM 28.5°F-1.9°C 9.4°F-12.6°C 44% Calm Calm 12.1 mph19.5 kmh 30.71 in1040.0 mb 0.00 in0.0 mm 0.00 in0.0 mm 0.00 in0.0 mm
09:59 AM 28.3°F-2.1°C 9.2°F-12.7°C 44% 7.0 mph N11.3 kmh N 12.1 mph19.5 kmh 30.71 in1040.0 mb 0.00 in0.0 mm 0.00 in0.0 mm 0.00 in0.0 mm
09:57 AM 28.3°F-2.1°C 9.2°F-12.7°C 44% 3.8 mph E6.1 kmh E 12.1 mph19.5 kmh 30.71 in1040.0 mb 0.00 in0.0 mm 0.00 in0.0 mm 0.00 in0.0 mm
09:56 AM 28.3°F-2.1°C 9.2°F-12.7°C 44% 7.5 mph NNW12.1 kmh NNW 12.1 mph19.5 kmh 30.71 in1040.0 mb 0.00 in0.0 mm 0.00 in0.0 mm 0.00 in0.0 mm
09:54 AM 28.3°F-2.1°C 9.2°F-12.7°C 44% 7.0 mph NE11.3 kmh NE 12.1 mph19.5 kmh 30.71 in1040.0 mb 0.00 in0.0 mm 0.00 in0.0 mm 0.00 in0.0 mm
09:53 AM 28.1°F-2.2°C 9.0°F-12.8°C 44% 9.7 mph NNW15.6 kmh NNW 10.5 mph16.9 kmh 30.71 in1040.0 mb 0.00 in0.0 mm 0.00 in0.0 mm 0.00 in0.0 mm
09:52 AM 28.1°F-2.2°C 9.0°F-12.8°C 44% 4.8 mph NNE7.7 kmh NNE 9.9 mph15.9 kmh 30.71 in1040.0 mb 0.00 in0.0 mm 0.00 in0.0 mm 0.00 in0.0 mm
09:51 AM 28.1°F-2.2°C 9.0°F-12.8°C 44% 9.9 mph NNE15.9 kmh NNE 9.9 mph15.9 kmh 30.71 in1040.0 mb 0.00 in0.0 mm 0.00 in0.0 mm 0.00 in0.0 mm
09:49 AM 28.1°F-2.2°C 9.0°F-12.8°C 44% 5.9 mph NW9.5 kmh NW 9.9 mph15.9 kmh 30.71 in1040.0 mb 0.00 in0.0 mm 0.00 in0.0 mm 0.00 in0.0 mm
09:47 AM 27.9°F-2.3°C 8.9°F-12.8°C 44% 4.8 mph NNW7.7 kmh NNW 9.9 mph15.9 kmh 30.71 in1040.0 mb 0.00 in0.0 mm 0.00 in0.0 mm 0.00 in0.0 mm
09:46 AM 27.9°F-2.3°C 8.9°F-12.8°C 44% 4.3 mph NW6.9 kmh NW 9.7 mph15.6 kmh 30.71 in1040.0 mb 0.00 in0.0 mm 0.00 in0.0 mm 0.00 in0.0 mm
09:44 AM 27.8°F-2.3°C 8.7°F-12.9°C 44% 6.4 mph N10.3 kmh N 9.7 mph15.6 kmh 30.71 in1040.0 mb 0.00 in0.0 mm 0.00 in0.0 mm 0.00 in0.0 mm
09:43 AM 27.8°F-2.3°C 8.7°F-12.9°C 44% 6.4 mph NNE10.3 kmh NNE 9.7 mph15.6 kmh 30.71 in1040.0 mb 0.00 in0.0 mm 0.00 in0.0 mm 0.00 in0.0 mm
09:42 AM 27.6°F-2.4°C 8.5°F-13.1°C 44% 4.8 mph NW7.7 kmh NW 10.5 mph16.9 kmh 30.71 in1040.0 mb 0.00 in0.0 mm 0.00 in0.0 mm 0.00 in0.0 mm
09:40 AM 27.6°F-2.4°C 8.5°F-13.1°C 44% 7.5 mph N12.1 kmh N 10.5 mph16.9 kmh 30.71 in1040.0 mb 0.00 in0.0 mm 0.00 in0.0 mm 0.00 in0.0 mm
09:39 AM 27.6°F-2.4°C 8.5°F-13.1°C 44% 5.9 mph N9.5 kmh N 10.5 mph16.9 kmh 30.71 in1040.0 mb 0.00 in0.0 mm 0.00 in0.0 mm 0.00 in0.0 mm
09:37 AM 27.4°F-2.6°C 8.4°F-13.1°C 44% 4.8 mph N7.7 kmh N 10.5 mph16.9 kmh 30.71 in1040.0 mb 0.00 in0.0 mm 0.00 in0.0 mm 0.00 in0.0 mm
09:36 AM 27.4°F-2.6°C 8.4°F-13.1°C 44% 9.1 mph NNE14.6 kmh NNE 10.5 mph16.9 kmh 30.71 in1040.0 mb 0.00 in0.0 mm 0.00 in0.0 mm 0.00 in0.0 mm
09:35 AM 27.2°F-2.7°C 8.2°F-13.2°C 44% 9.1 mph N14.6 kmh N 9.9 mph15.9 kmh 30.71 in1040.0 mb 0.00 in0.0 mm 0.00 in0.0 mm 0.00 in0.0 mm
09:33 AM 27.0°F-2.8°C 8.0°F-13.3°C 44% 3.8 mph N6.1 kmh N 9.9 mph15.9 kmh 30.71 in1040.0 mb 0.00 in0.0 mm 0.00 in0.0 mm 0.00 in0.0 mm
09:32 AM 27.0°F-2.8°C 8.0°F-13.3°C 44% 4.8 mph N7.7 kmh N 7.5 mph12.1 kmh 30.71 in1040.0 mb 0.00 in0.0 mm 0.00 in0.0 mm 0.00 in0.0 mm
09:30 AM 26.9°F-2.8°C 7.9°F-13.4°C 44% 4.8 mph NNW7.7 kmh NNW 7.5 mph12.1 kmh 30.71 in1040.0 mb 0.00 in0.0 mm 0.00 in0.0 mm 0.00 in0.0 mm
09:29 AM 26.9°F-2.8°C 7.9°F-13.4°C 44% 5.9 mph NNW9.5 kmh NNW 9.1 mph14.6 kmh 30.71 in1040.0 mb 0.00 in0.0 mm 0.00 in0.0 mm 0.00 in0.0 mm
09:28 AM 26.7°F-2.9°C 7.7°F-13.5°C 44% 7.0 mph N11.3 kmh N 9.1 mph14.6 kmh 30.71 in1040.0 mb 0.00 in0.0 mm 0.00 in0.0 mm 0.00 in0.0 mm
09:26 AM 26.5°F-3.1°C 7.6°F-13.6°C 44% 4.8 mph N7.7 kmh N 9.1 mph14.6 kmh 30.71 in1040.0 mb 0.00 in0.0 mm 0.00 in0.0 mm 0.00 in0.0 mm
09:25 AM 26.3°F-3.2°C 7.4°F-13.7°C 44% 5.9 mph N9.5 kmh N 9.1 mph14.6 kmh 30.71 in1040.0 mb 0.00 in0.0 mm 0.00 in0.0 mm 0.00 in0.0 mm
09:23 AM 26.3°F-3.2°C 7.4°F-13.7°C 44% 3.8 mph NNE6.1 kmh NNE 9.1 mph14.6 kmh 30.71 in1040.0 mb 0.00 in0.0 mm 0.00 in0.0 mm 0.00 in0.0 mm
09:22 AM 26.1°F-3.3°C 7.2°F-13.8°C 44% 4.8 mph NNE7.7 kmh NNE 9.1 mph14.6 kmh 30.71 in1040.0 mb 0.00 in0.0 mm 0.00 in0.0 mm 0.00 in0.0 mm
09:21 AM 26.1°F-3.3°C 7.2°F-13.8°C 44% 7.5 mph NNE12.1 kmh NNE 9.1 mph14.6 kmh 30.71 in1040.0 mb 0.00 in0.0 mm 0.00 in0.0 mm 0.00 in0.0 mm
09:19 AM 26.0°F-3.3°C 7.1°F-13.8°C 44% 6.4 mph NW10.3 kmh NW 12.1 mph19.5 kmh 30.71 in1040.0 mb 0.00 in0.0 mm 0.00 in0.0 mm 0.00 in0.0 mm
09:18 AM 26.0°F-3.3°C 7.1°F-13.8°C 44% 6.4 mph NE10.3 kmh NE 12.1 mph19.5 kmh 30.71 in1040.0 mb 0.00 in0.0 mm 0.00 in0.0 mm 0.00 in0.0 mm
09:16 AM 26.0°F-3.3°C 7.1°F-13.8°C 44% 4.3 mph N6.9 kmh N 12.1 mph19.5 kmh 30.71 in1040.0 mb 0.00 in0.0 mm 0.00 in0.0 mm 0.00 in0.0 mm
09:15 AM 26.0°F-3.3°C 7.1°F-13.8°C 44% 3.2 mph N5.1 kmh N 12.1 mph19.5 kmh 30.71 in1040.0 mb 0.00 in0.0 mm 0.00 in0.0 mm 0.00 in0.0 mm
09:14 AM 25.8°F-3.4°C 6.9°F-13.9°C 44% 7.0 mph NNW11.3 kmh NNW 12.1 mph19.5 kmh 30.71 in1040.0 mb 0.00 in0.0 mm 0.00 in0.0 mm 0.00 in0.0 mm
09:12 AM 25.8°F-3.4°C 6.9°F-13.9°C 44% 7.5 mph NW12.1 kmh NW 8.6 mph13.8 kmh 30.71 in1040.0 mb 0.00 in0.0 mm 0.00 in0.0 mm 0.00 in0.0 mm
09:11 AM 25.8°F-3.4°C 6.9°F-13.9°C 44% 4.8 mph NE7.7 kmh NE 8.6 mph13.8 kmh 30.71 in1040.0 mb 0.00 in0.0 mm 0.00 in0.0 mm 0.00 in0.0 mm
09:09 AM 25.6°F-3.6°C 7.2°F-13.8°C 45% 7.5 mph NNE12.1 kmh NNE 8.6 mph13.8 kmh 30.71 in1040.0 mb 0.00 in0.0 mm 0.00 in0.0 mm 0.00 in0.0 mm
09:08 AM 25.6°F-3.6°C 7.2°F-13.8°C 45% 4.3 mph N6.9 kmh N 8.6 mph13.8 kmh 30.71 in1040.0 mb 0.00 in0.0 mm 0.00 in0.0 mm 0.00 in0.0 mm
09:07 AM 25.4°F-3.7°C 7.1°F-13.8°C 45% 8.6 mph 13.8 kmh 9.9 mph15.9 kmh 30.71 in1040.0 mb 0.00 in0.0 mm 0.00 in0.0 mm 0.00 in0.0 mm
09:06 AM 25.4°F-3.7°C 7.1°F-13.8°C 45% 5.9 mph N9.5 kmh N 9.9 mph15.9 kmh 30.71 in1040.0 mb 0.00 in0.0 mm 0.00 in0.0 mm 0.00 in0.0 mm
09:04 AM 25.2°F-3.8°C 6.9°F-13.9°C 45% 3.8 mph NW6.1 kmh NW 9.9 mph15.9 kmh 30.71 in1040.0 mb 0.00 in0.0 mm 0.00 in0.0 mm 0.00 in0.0 mm
09:02 AM 25.1°F-3.8°C 6.7°F-14.1°C 45% 4.8 mph NNW7.7 kmh NNW 9.9 mph15.9 kmh 30.71 in1040.0 mb 0.00 in0.0 mm 0.00 in0.0 mm 0.00 in0.0 mm
09:00 AM 24.9°F-3.9°C 6.6°F-14.1°C 45% 3.8 mph SW6.1 kmh SW 9.7 mph15.6 kmh 30.71 in1040.0 mb 0.00 in0.0 mm 0.00 in0.0 mm 0.00 in0.0 mm
08:58 AM 24.7°F-4.1°C 6.4°F-14.2°C 45% 4.8 mph 7.7 kmh 9.7 mph15.6 kmh 30.71 in1040.0 mb 0.00 in0.0 mm 0.00 in0.0 mm 0.00 in0.0 mm
08:57 AM 24.5°F-4.2°C 6.2°F-14.3°C 45% 4.3 mph N6.9 kmh N 9.7 mph15.6 kmh 30.71 in1040.0 mb 0.00 in0.0 mm 0.00 in0.0 mm 0.00 in0.0 mm
08:55 AM 24.5°F-4.2°C 6.2°F-14.3°C 45% 3.2 mph N5.1 kmh N 9.7 mph15.6 kmh 30.71 in1040.0 mb 0.00 in0.0 mm 0.00 in0.0 mm 0.00 in0.0 mm
08:53 AM 24.3°F-4.3°C 6.1°F-14.4°C 45% 9.7 mph NNE15.6 kmh NNE 9.7 mph15.6 kmh 30.71 in1040.0 mb 0.00 in0.0 mm 0.00 in0.0 mm 0.00 in0.0 mm
08:51 AM 24.3°F-4.3°C 6.1°F-14.4°C 45% 4.8 mph NW7.7 kmh NW 9.1 mph14.6 kmh 30.71 in1040.0 mb 0.00 in0.0 mm 0.00 in0.0 mm 0.00 in0.0 mm
08:50 AM 24.3°F-4.3°C 6.1°F-14.4°C 45% 6.4 mph NNW10.3 kmh NNW 9.1 mph14.6 kmh 30.71 in1040.0 mb 0.00 in0.0 mm 0.00 in0.0 mm 0.00 in0.0 mm
08:48 AM 24.2°F-4.3°C 5.9°F-14.5°C 45% 6.4 mph NNW10.3 kmh NNW 9.1 mph14.6 kmh 30.71 in1040.0 mb 0.00 in0.0 mm 0.00 in0.0 mm 0.00 in0.0 mm
08:47 AM 24.0°F-4.4°C 5.7°F-14.6°C 45% 5.4 mph N8.7 kmh N 9.1 mph14.6 kmh 30.71 in1040.0 mb 0.00 in0.0 mm 0.00 in0.0 mm 0.00 in0.0 mm
08:46 AM 24.0°F-4.4°C 5.7°F-14.6°C 45% 5.4 mph NW8.7 kmh NW 9.1 mph14.6 kmh 30.71 in1040.0 mb 0.00 in0.0 mm 0.00 in0.0 mm 0.00 in0.0 mm
08:45 AM 24.0°F-4.4°C 5.7°F-14.6°C 45% 5.9 mph NW9.5 kmh NW 8.6 mph13.8 kmh 30.71 in1040.0 mb 0.00 in0.0 mm 0.00 in0.0 mm 0.00 in0.0 mm
08:43 AM 23.8°F-4.6°C 5.6°F-14.7°C 45% 3.8 mph NW6.1 kmh NW 6.4 mph10.3 kmh 30.71 in1040.0 mb 0.00 in0.0 mm 0.00 in0.0 mm 0.00 in0.0 mm
08:41 AM 23.6°F-4.7°C 5.4°F-14.8°C 45% 3.8 mph NNW6.1 kmh NNW 6.4 mph10.3 kmh 30.71 in1040.0 mb 0.00 in0.0 mm 0.00 in0.0 mm 0.00 in0.0 mm
08:40 AM 23.6°F-4.7°C 5.4°F-14.8°C 45% 3.2 mph NNW5.1 kmh NNW 6.4 mph10.3 kmh 30.71 in1040.0 mb 0.00 in0.0 mm 0.00 in0.0 mm 0.00 in0.0 mm
08:39 AM 23.4°F-4.8°C 5.2°F-14.9°C 45% Calm Calm 7.5 mph12.1 kmh 30.71 in1040.0 mb 0.00 in0.0 mm 0.00 in0.0 mm 0.00 in0.0 mm
08:37 AM 23.4°F-4.8°C 5.2°F-14.9°C 45% 3.2 mph NW5.1 kmh NW 7.5 mph12.1 kmh 30.71 in1040.0 mb 0.00 in0.0 mm 0.00 in0.0 mm 0.00 in0.0 mm
08:36 AM 23.3°F-4.8°C 5.1°F-14.9°C 45% 3.2 mph NW5.1 kmh NW 7.5 mph12.1 kmh 30.71 in1040.0 mb 0.00 in0.0 mm 0.00 in0.0 mm 0.00 in0.0 mm
08:35 AM 23.3°F-4.8°C 5.1°F-14.9°C 45% 4.8 mph NW7.7 kmh NW 9.1 mph14.6 kmh 30.71 in1040.0 mb 0.00 in0.0 mm 0.00 in0.0 mm 0.00 in0.0 mm
08:33 AM 23.3°F-4.8°C 5.1°F-14.9°C 45% 4.8 mph NNW7.7 kmh NNW 9.1 mph14.6 kmh 30.71 in1040.0 mb 0.00 in0.0 mm 0.00 in0.0 mm 0.00 in0.0 mm
08:32 AM 23.1°F-4.9°C 4.9°F-15.1°C 45% 3.8 mph N6.1 kmh N 9.1 mph14.6 kmh 30.71 in1040.0 mb 0.00 in0.0 mm 0.00 in0.0 mm 0.00 in0.0 mm
08:30 AM 23.1°F-4.9°C 4.9°F-15.1°C 45% 3.8 mph W6.1 kmh W 9.1 mph14.6 kmh 30.71 in1040.0 mb 0.00 in0.0 mm 0.00 in0.0 mm 0.00 in0.0 mm
08:29 AM 22.9°F-5.1°C 4.8°F-15.1°C 45% 3.8 mph NW6.1 kmh NW 9.1 mph14.6 kmh 30.68 in1038.9 mb 0.00 in0.0 mm 0.00 in0.0 mm 0.00 in0.0 mm
08:27 AM 22.7°F-5.2°C 4.6°F-15.2°C 45% 6.4 mph NNW10.3 kmh NNW 7.0 mph11.3 kmh 30.68 in1038.9 mb 0.00 in0.0 mm 0.00 in0.0 mm 0.00 in0.0 mm
08:26 AM 22.7°F-5.2°C 4.6°F-15.2°C 45% 4.3 mph NW6.9 kmh NW 7.0 mph11.3 kmh 30.68 in1038.9 mb 0.00 in0.0 mm 0.00 in0.0 mm 0.00 in0.0 mm
08:25 AM 22.5°F-5.3°C 4.4°F-15.3°C 45% 4.8 mph NW7.7 kmh NW 7.0 mph11.3 kmh 30.68 in1038.9 mb 0.00 in0.0 mm 0.00 in0.0 mm 0.00 in0.0 mm
08:24 AM 22.5°F-5.3°C 4.4°F-15.3°C 45% 3.8 mph W6.1 kmh W 9.7 mph15.6 kmh 30.68 in1038.9 mb 0.00 in0.0 mm 0.00 in0.0 mm 0.00 in0.0 mm
08:22 AM 22.4°F-5.3°C 4.3°F-15.4°C 45% 3.8 mph NNW6.1 kmh NNW 9.7 mph15.6 kmh 30.68 in1038.9 mb 0.00 in0.0 mm 0.00 in0.0 mm 0.00 in0.0 mm
08:21 AM 22.4°F-5.3°C 4.3°F-15.4°C 45% 5.9 mph NNW9.5 kmh NNW 9.7 mph15.6 kmh 30.68 in1038.9 mb 0.00 in0.0 mm 0.00 in0.0 mm 0.00 in0.0 mm
08:19 AM 22.4°F-5.3°C 4.3°F-15.4°C 45% 4.8 mph NNW7.7 kmh NNW 9.7 mph15.6 kmh 30.68 in1038.9 mb 0.00 in0.0 mm 0.00 in0.0 mm 0.00 in0.0 mm
08:18 AM 22.2°F-5.4°C 4.1°F-15.5°C 45% 3.8 mph NNW6.1 kmh NNW 9.7 mph15.6 kmh 30.68 in1038.9 mb 0.00 in0.0 mm 0.00 in0.0 mm 0.00 in0.0 mm
08:17 AM 22.2°F-5.4°C 4.1°F-15.5°C 45% 9.7 mph NNW15.6 kmh NNW 9.7 mph15.6 kmh 30.68 in1038.9 mb 0.00 in0.0 mm 0.00 in0.0 mm 0.00 in0.0 mm
08:15 AM 22.0°F-5.6°C 3.9°F-15.6°C 45% 4.8 mph NNW7.7 kmh NNW 9.1 mph14.6 kmh 30.68 in1038.9 mb 0.00 in0.0 mm 0.00 in0.0 mm 0.00 in0.0 mm
08:13 AM 22.0°F-5.6°C 3.9°F-15.6°C 45% 3.2 mph NNW5.1 kmh NNW 9.1 mph14.6 kmh 30.68 in1038.9 mb 0.00 in0.0 mm 0.00 in0.0 mm 0.00 in0.0 mm
08:12 AM 21.8°F-5.7°C 3.8°F-15.7°C 45% 6.4 mph NNW10.3 kmh NNW 9.1 mph14.6 kmh 30.68 in1038.9 mb 0.00 in0.0 mm 0.00 in0.0 mm 0.00 in0.0 mm
08:11 AM 21.8°F-5.7°C 3.8°F-15.7°C 45% 4.3 mph NW6.9 kmh NW 6.4 mph10.3 kmh 30.68 in1038.9 mb 0.00 in0.0 mm 0.00 in0.0 mm 0.00 in0.0 mm
08:09 AM 21.8°F-5.7°C 3.8°F-15.7°C 45% Calm Calm 6.4 mph10.3 kmh 30.68 in1038.9 mb 0.00 in0.0 mm 0.00 in0.0 mm 0.00 in0.0 mm
08:08 AM 21.6°F-5.8°C 3.6°F-15.8°C 45% 3.8 mph NW6.1 kmh NW 7.0 mph11.3 kmh 30.68 in1038.9 mb 0.00 in0.0 mm 0.00 in0.0 mm 0.00 in0.0 mm
08:06 AM 21.6°F-5.8°C 3.6°F-15.8°C 45% Calm Calm 7.0 mph11.3 kmh 30.68 in1038.9 mb 0.00 in0.0 mm 0.00 in0.0 mm 0.00 in0.0 mm
08:05 AM 21.5°F-5.8°C 3.4°F-15.9°C 45% 5.9 mph NW9.5 kmh NW 7.0 mph11.3 kmh 30.68 in1038.9 mb 0.00 in0.0 mm 0.00 in0.0 mm 0.00 in0.0 mm
08:04 AM 21.3°F-5.9°C 3.3°F-15.9°C 45% 4.3 mph NNW6.9 kmh NNW 7.0 mph11.3 kmh 30.68 in1038.9 mb 0.00 in0.0 mm 0.00 in0.0 mm 0.00 in0.0 mm
08:02 AM 21.3°F-5.9°C 3.3°F-15.9°C 45% 3.8 mph NW6.1 kmh NW 7.0 mph11.3 kmh 30.68 in1038.9 mb 0.00 in0.0 mm 0.00 in0.0 mm 0.00 in0.0 mm
08:01 AM 21.3°F-5.9°C 3.3°F-15.9°C 45% 7.0 mph NW11.3 kmh NW 7.0 mph11.3 kmh 30.68 in1038.9 mb 0.00 in0.0 mm 0.00 in0.0 mm 0.00 in0.0 mm
08:00 AM 21.3°F-5.9°C 3.3°F-15.9°C 45% 4.3 mph WSW6.9 kmh WSW 5.9 mph9.5 kmh 30.68 in1038.9 mb 0.00 in0.0 mm 0.00 in0.0 mm 0.00 in0.0 mm
07:58 AM 21.1°F-6.1°C 3.1°F-16.1°C 45% Calm Calm 5.9 mph9.5 kmh 30.68 in1038.9 mb 0.00 in0.0 mm 0.00 in0.0 mm 0.00 in0.0 mm
07:57 AM 21.1°F-6.1°C 3.1°F-16.1°C 45% Calm Calm 5.9 mph9.5 kmh 30.68 in1038.9 mb 0.00 in0.0 mm 0.00 in0.0 mm 0.00 in0.0 mm
07:55 AM 20.9°F-6.2°C 2.9°F-16.2°C 45% 2.7 mph WNW4.3 kmh WNW 5.9 mph9.5 kmh 30.68 in1038.9 mb 0.00 in0.0 mm 0.00 in0.0 mm 0.00 in0.0 mm
07:54 AM 20.9°F-6.2°C 2.9°F-16.2°C 45% 3.8 mph W6.1 kmh W 4.8 mph7.7 kmh 30.68 in1038.9 mb 0.00 in0.0 mm 0.00 in0.0 mm 0.00 in0.0 mm
07:52 AM 20.7°F-6.3°C 2.8°F-16.2°C 45% Calm Calm 4.8 mph7.7 kmh 30.68 in1038.9 mb 0.00 in0.0 mm 0.00 in0.0 mm 0.00 in0.0 mm
07:50 AM 20.6°F-6.3°C 2.6°F-16.3°C 45% 4.8 mph NNW7.7 kmh NNW 4.8 mph7.7 kmh 30.68 in1038.9 mb 0.00 in0.0 mm 0.00 in0.0 mm 0.00 in0.0 mm
07:48 AM 20.6°F-6.3°C 2.6°F-16.3°C 45% Calm Calm 4.8 mph7.7 kmh 30.68 in1038.9 mb 0.00 in0.0 mm 0.00 in0.0 mm 0.00 in0.0 mm
07:47 AM 20.4°F-6.4°C 2.4°F-16.4°C 45% 3.2 mph NW5.1 kmh NW 4.8 mph7.7 kmh 30.68 in1038.9 mb 0.00 in0.0 mm 0.00 in0.0 mm 0.00 in0.0 mm
07:46 AM 20.4°F-6.4°C 2.4°F-16.4°C 45% 4.8 mph NW7.7 kmh NW 4.8 mph7.7 kmh 30.68 in1038.9 mb 0.00 in0.0 mm 0.00 in0.0 mm 0.00 in0.0 mm
07:44 AM 20.2°F-6.6°C 2.7°F-16.3°C 46% Calm Calm -- 30.68 in1038.9 mb 0.00 in0.0 mm 0.00 in0.0 mm 0.00 in0.0 mm
07:43 AM 20.2°F-6.6°C 2.7°F-16.3°C 46% Calm Calm -- 30.68 in1038.9 mb 0.00 in0.0 mm 0.00 in0.0 mm 0.00 in0.0 mm
07:41 AM 20.2°F-6.6°C 2.7°F-16.3°C 46% Calm Calm -- 30.68 in1038.9 mb 0.00 in0.0 mm 0.00 in0.0 mm 0.00 in0.0 mm
07:40 AM 20.0°F-6.7°C 2.6°F-16.3°C 46% Calm Calm -- 30.68 in1038.9 mb 0.00 in0.0 mm 0.00 in0.0 mm 0.00 in0.0 mm
07:39 AM 20.0°F-6.7°C 2.6°F-16.3°C 46% Calm Calm -- 30.68 in1038.9 mb 0.00 in0.0 mm 0.00 in0.0 mm 0.00 in0.0 mm
07:37 AM 20.0°F-6.7°C 2.6°F-16.3°C 46% Calm Calm -- 30.68 in1038.9 mb 0.00 in0.0 mm 0.00 in0.0 mm 0.00 in0.0 mm
07:36 AM 20.0°F-6.7°C 2.6°F-16.3°C 46% Calm Calm 2.7 mph4.3 kmh 30.68 in1038.9 mb 0.00 in0.0 mm 0.00 in0.0 mm 0.00 in0.0 mm
07:34 AM 20.0°F-6.7°C 2.6°F-16.3°C 46% Calm Calm 2.7 mph4.3 kmh 30.68 in1038.9 mb 0.00 in0.0 mm 0.00 in0.0 mm 0.00 in0.0 mm
07:33 AM 19.8°F-6.8°C 2.4°F-16.4°C 46% Calm Calm 4.3 mph6.9 kmh 30.68 in1038.9 mb 0.00 in0.0 mm 0.00 in0.0 mm 0.00 in0.0 mm
07:31 AM 19.8°F-6.8°C 2.4°F-16.4°C 46% Calm Calm 4.3 mph6.9 kmh 30.68 in1038.9 mb 0.00 in0.0 mm 0.00 in0.0 mm 0.00 in0.0 mm
07:29 AM 19.7°F-6.8°C 2.3°F-16.5°C 46% Calm Calm 4.3 mph6.9 kmh 30.68 in1038.9 mb 0.00 in0.0 mm 0.00 in0.0 mm 0.00 in0.0 mm
07:27 AM 19.7°F-6.8°C 2.3°F-16.5°C 46% 2.7 mph W4.3 kmh W 4.3 mph6.9 kmh 30.68 in1038.9 mb 0.00 in0.0 mm 0.00 in0.0 mm 0.00 in0.0 mm
07:26 AM 19.5°F-6.9°C 2.1°F-16.6°C 46% Calm Calm -- 30.68 in1038.9 mb 0.00 in0.0 mm 0.00 in0.0 mm 0.00 in0.0 mm
07:24 AM 19.5°F-6.9°C 2.1°F-16.6°C 46% Calm Calm -- 30.68 in1038.9 mb 0.00 in0.0 mm 0.00 in0.0 mm 0.00 in0.0 mm
07:23 AM 19.5°F-6.9°C 2.1°F-16.6°C 46% Calm Calm -- 30.68 in1038.9 mb 0.00 in0.0 mm 0.00 in0.0 mm 0.00 in0.0 mm
07:22 AM 19.5°F-6.9°C 2.1°F-16.6°C 46% Calm Calm -- 30.68 in1038.9 mb 0.00 in0.0 mm 0.00 in0.0 mm 0.00 in0.0 mm
07:20 AM 19.3°F-7.1°C 1.9°F-16.7°C 46% Calm Calm -- 30.68 in1038.9 mb 0.00 in0.0 mm 0.00 in0.0 mm 0.00 in0.0 mm
07:19 AM 19.3°F-7.1°C 1.9°F-16.7°C 46% Calm Calm -- 30.68 in1038.9 mb 0.00 in0.0 mm 0.00 in0.0 mm 0.00 in0.0 mm
07:17 AM 19.3°F-7.1°C 1.9°F-16.7°C 46% Calm Calm -- 30.68 in1038.9 mb 0.00 in0.0 mm 0.00 in0.0 mm 0.00 in0.0 mm
07:16 AM 19.3°F-7.1°C 1.9°F-16.7°C 46% Calm Calm -- 30.68 in1038.9 mb 0.00 in0.0 mm 0.00 in0.0 mm 0.00 in0.0 mm
07:15 AM 19.3°F-7.1°C 1.9°F-16.7°C 46% Calm Calm -- 30.68 in1038.9 mb 0.00 in0.0 mm 0.00 in0.0 mm 0.00 in0.0 mm
07:13 AM 19.3°F-7.1°C 1.9°F-16.7°C 46% Calm Calm -- 30.65 in1037.9 mb 0.00 in0.0 mm 0.00 in0.0 mm 0.00 in0.0 mm
07:12 AM 19.3°F-7.1°C 1.9°F-16.7°C 46% Calm Calm -- 30.65 in1037.9 mb 0.00 in0.0 mm 0.00 in0.0 mm 0.00 in0.0 mm
07:10 AM 19.3°F-7.1°C 1.9°F-16.7°C 46% Calm Calm -- 30.65 in1037.9 mb 0.00 in0.0 mm 0.00 in0.0 mm 0.00 in0.0 mm
07:09 AM 19.3°F-7.1°C 1.9°F-16.7°C 46% Calm Calm -- 30.65 in1037.9 mb 0.00 in0.0 mm 0.00 in0.0 mm 0.00 in0.0 mm
07:08 AM 19.3°F-7.1°C 1.9°F-16.7°C 46% Calm Calm -- 30.65 in1037.9 mb 0.00 in0.0 mm 0.00 in0.0 mm 0.00 in0.0 mm
07:07 AM 19.3°F-7.1°C 1.9°F-16.7°C 46% Calm Calm -- 30.65 in1037.9 mb 0.00 in0.0 mm 0.00 in0.0 mm 0.00 in0.0 mm
07:05 AM 19.3°F-7.1°C 1.9°F-16.7°C 46% Calm Calm -- 30.65 in1037.9 mb 0.00 in0.0 mm 0.00 in0.0 mm 0.00 in0.0 mm
07:03 AM 19.3°F-7.1°C 1.9°F-16.7°C 46% Calm Calm -- 30.65 in1037.9 mb 0.00 in0.0 mm 0.00 in0.0 mm 0.00 in0.0 mm
07:02 AM 19.3°F-7.1°C 1.9°F-16.7°C 46% Calm Calm -- 30.65 in1037.9 mb 0.00 in0.0 mm 0.00 in0.0 mm 0.00 in0.0 mm
07:01 AM 19.3°F-7.1°C 1.9°F-16.7°C 46% Calm Calm -- 30.65 in1037.9 mb 0.00 in0.0 mm 0.00 in0.0 mm 0.00 in0.0 mm
06:59 AM 19.3°F-7.1°C 1.9°F-16.7°C 46% Calm Calm -- 30.65 in1037.9 mb 0.00 in0.0 mm 0.00 in0.0 mm 0.00 in0.0 mm
06:58 AM 19.3°F-7.1°C 1.9°F-16.7°C 46% Calm Calm -- 30.65 in1037.9 mb 0.00 in0.0 mm 0.00 in0.0 mm 0.00 in0.0 mm
06:56 AM 19.3°F-7.1°C 1.9°F-16.7°C 46% Calm Calm -- 30.65 in1037.9 mb 0.00 in0.0 mm 0.00 in0.0 mm 0.00 in0.0 mm
06:55 AM 19.3°F-7.1°C 1.9°F-16.7°C 46% Calm Calm -- 30.65 in1037.9 mb 0.00 in0.0 mm 0.00 in0.0 mm 0.00 in0.0 mm
06:54 AM 19.1°F-7.2°C 1.8°F-16.8°C 46% Calm Calm -- 30.65 in1037.9 mb 0.00 in0.0 mm 0.00 in0.0 mm 0.00 in0.0 mm
06:52 AM 19.1°F-7.2°C 1.8°F-16.8°C 46% Calm Calm -- 30.65 in1037.9 mb 0.00 in0.0 mm 0.00 in0.0 mm 0.00 in0.0 mm
06:51 AM 19.1°F-7.2°C 1.8°F-16.8°C 46% Calm Calm -- 30.65 in1037.9 mb 0.00 in0.0 mm 0.00 in0.0 mm 0.00 in0.0 mm
06:49 AM 19.1°F-7.2°C 1.8°F-16.8°C 46% Calm Calm -- 30.65 in1037.9 mb 0.00 in0.0 mm 0.00 in0.0 mm 0.00 in0.0 mm
06:47 AM 19.1°F-7.2°C 1.8°F-16.8°C 46% Calm Calm -- 30.65 in1037.9 mb 0.00 in0.0 mm 0.00 in0.0 mm 0.00 in0.0 mm
06:46 AM 19.1°F-7.2°C 1.8°F-16.8°C 46% Calm Calm -- 30.65 in1037.9 mb 0.00 in0.0 mm 0.00 in0.0 mm 0.00 in0.0 mm
06:44 AM 18.9°F-7.3°C 1.6°F-16.9°C 46% Calm Calm -- 30.65 in1037.9 mb 0.00 in0.0 mm 0.00 in0.0 mm 0.00 in0.0 mm
06:42 AM 18.9°F-7.3°C 1.6°F-16.9°C 46% Calm Calm -- 30.65 in1037.9 mb 0.00 in0.0 mm 0.00 in0.0 mm 0.00 in0.0 mm
06:40 AM 18.9°F-7.3°C 1.6°F-16.9°C 46% Calm Calm -- 30.65 in1037.9 mb 0.00 in0.0 mm 0.00 in0.0 mm 0.00 in0.0 mm
06:38 AM 18.9°F-7.3°C 1.6°F-16.9°C 46% Calm Calm -- 30.65 in1037.9 mb 0.00 in0.0 mm 0.00 in0.0 mm 0.00 in0.0 mm
06:37 AM 18.9°F-7.3°C 1.6°F-16.9°C 46% Calm Calm -- 30.65 in1037.9 mb 0.00 in0.0 mm 0.00 in0.0 mm 0.00 in0.0 mm
06:35 AM 18.9°F-7.3°C 1.6°F-16.9°C 46% Calm Calm -- 30.65 in1037.9 mb 0.00 in0.0 mm 0.00 in0.0 mm 0.00 in0.0 mm
06:34 AM 18.9°F-7.3°C 1.6°F-16.9°C 46% Calm Calm -- 30.65 in1037.9 mb 0.00 in0.0 mm 0.00 in0.0 mm 0.00 in0.0 mm
06:33 AM 19.1°F-7.2°C 1.8°F-16.8°C 46% Calm Calm -- 30.65 in1037.9 mb 0.00 in0.0 mm 0.00 in0.0 mm 0.00 in0.0 mm
06:31 AM 19.1°F-7.2°C 1.8°F-16.8°C 46% Calm Calm -- 30.65 in1037.9 mb 0.00 in0.0 mm 0.00 in0.0 mm 0.00 in0.0 mm
06:30 AM 19.1°F-7.2°C 1.8°F-16.8°C 46% Calm Calm -- 30.65 in1037.9 mb 0.00 in0.0 mm 0.00 in0.0 mm 0.00 in0.0 mm
06:29 AM 19.1°F-7.2°C 1.8°F-16.8°C 46% Calm Calm -- 30.65 in1037.9 mb 0.00 in0.0 mm 0.00 in0.0 mm 0.00 in0.0 mm
06:28 AM 19.1°F-7.2°C 1.8°F-16.8°C 46% Calm Calm -- 30.65 in1037.9 mb 0.00 in0.0 mm 0.00 in0.0 mm 0.00 in0.0 mm
06:27 AM 19.3°F-7.1°C 1.9°F-16.7°C 46% Calm Calm -- 30.65 in1037.9 mb 0.00 in0.0 mm 0.00 in0.0 mm 0.00 in0.0 mm
06:26 AM 19.3°F-7.1°C 1.9°F-16.7°C 46% Calm Calm -- 30.65 in1037.9 mb 0.00 in0.0 mm 0.00 in0.0 mm 0.00 in0.0 mm
06:24 AM 19.3°F-7.1°C 1.9°F-16.7°C 46% Calm Calm -- 30.65 in1037.9 mb 0.00 in0.0 mm 0.00 in0.0 mm 0.00 in0.0 mm
06:23 AM 19.1°F-7.2°C 1.8°F-16.8°C 46% Calm Calm -- 30.65 in1037.9 mb 0.00 in0.0 mm 0.00 in0.0 mm 0.00 in0.0 mm
06:21 AM 19.1°F-7.2°C 1.8°F-16.8°C 46% Calm Calm -- 30.65 in1037.9 mb 0.00 in0.0 mm 0.00 in0.0 mm 0.00 in0.0 mm
06:20 AM 19.1°F-7.2°C 1.8°F-16.8°C 46% Calm Calm -- 30.65 in1037.9 mb 0.00 in0.0 mm 0.00 in0.0 mm 0.00 in0.0 mm
06:19 AM 19.3°F-7.1°C 1.9°F-16.7°C 46% Calm Calm 3.8 mph6.1 kmh 30.65 in1037.9 mb 0.00 in0.0 mm 0.00 in0.0 mm 0.00 in0.0 mm
06:17 AM 19.3°F-7.1°C 1.9°F-16.7°C 46% Calm Calm 3.8 mph6.1 kmh 30.65 in1037.9 mb 0.00 in0.0 mm 0.00 in0.0 mm 0.00 in0.0 mm
06:16 AM 19.3°F-7.1°C 1.9°F-16.7°C 46% Calm Calm 3.8 mph6.1 kmh 30.65 in1037.9 mb 0.00 in0.0 mm 0.00 in0.0 mm 0.00 in0.0 mm
06:14 AM 19.3°F-7.1°C 1.9°F-16.7°C 46% Calm Calm 3.8 mph6.1 kmh 30.65 in1037.9 mb 0.00 in0.0 mm 0.00 in0.0 mm 0.00 in0.0 mm
06:13 AM 19.3°F-7.1°C 1.9°F-16.7°C 46% Calm Calm 3.8 mph6.1 kmh 30.65 in1037.9 mb 0.00 in0.0 mm 0.00 in0.0 mm 0.00 in0.0 mm
06:12 AM 19.3°F-7.1°C 1.9°F-16.7°C 46% Calm Calm -- 30.65 in1037.9 mb 0.00 in0.0 mm 0.00 in0.0 mm 0.00 in0.0 mm
06:11 AM 19.3°F-7.1°C 1.9°F-16.7°C 46% Calm Calm -- 30.65 in1037.9 mb 0.00 in0.0 mm 0.00 in0.0 mm 0.00 in0.0 mm
06:09 AM 19.5°F-6.9°C 2.1°F-16.6°C 46% Calm Calm -- 30.65 in1037.9 mb 0.00 in0.0 mm 0.00 in0.0 mm 0.00 in0.0 mm
06:07 AM 19.5°F-6.9°C 2.1°F-16.6°C 46% Calm Calm -- 30.65 in1037.9 mb 0.00 in0.0 mm 0.00 in0.0 mm 0.00 in0.0 mm
06:06 AM 19.5°F-6.9°C 2.1°F-16.6°C 46% Calm Calm -- 30.65 in1037.9 mb 0.00 in0.0 mm 0.00 in0.0 mm 0.00 in0.0 mm
06:05 AM 19.5°F-6.9°C 2.1°F-16.6°C 46% Calm Calm -- 30.65 in1037.9 mb 0.00 in0.0 mm 0.00 in0.0 mm 0.00 in0.0 mm
06:04 AM 19.5°F-6.9°C 2.1°F-16.6°C 46% Calm Calm -- 30.65 in1037.9 mb 0.00 in0.0 mm 0.00 in0.0 mm 0.00 in0.0 mm
06:02 AM 19.5°F-6.9°C 2.1°F-16.6°C 46% Calm Calm -- 30.65 in1037.9 mb 0.00 in0.0 mm 0.00 in0.0 mm 0.00 in0.0 mm
06:01 AM 19.5°F-6.9°C 2.1°F-16.6°C 46% Calm Calm -- 30.65 in1037.9 mb 0.00 in0.0 mm 0.00 in0.0 mm 0.00 in0.0 mm
05:59 AM 19.5°F-6.9°C 2.1°F-16.6°C 46% Calm Calm -- 30.65 in1037.9 mb 0.00 in0.0 mm 0.00 in0.0 mm 0.00 in0.0 mm
05:58 AM 19.5°F-6.9°C 2.1°F-16.6°C 46% Calm Calm -- 30.62 in1036.9 mb 0.00 in0.0 mm 0.00 in0.0 mm 0.00 in0.0 mm
05:56 AM 19.7°F-6.8°C 2.3°F-16.5°C 46% Calm Calm -- 30.62 in1036.9 mb 0.00 in0.0 mm 0.00 in0.0 mm 0.00 in0.0 mm
05:55 AM 19.7°F-6.8°C 2.3°F-16.5°C 46% Calm Calm -- 30.62 in1036.9 mb 0.00 in0.0 mm 0.00 in0.0 mm 0.00 in0.0 mm
05:53 AM 19.7°F-6.8°C 2.3°F-16.5°C 46% Calm Calm 4.3 mph6.9 kmh 30.62 in1036.9 mb 0.00 in0.0 mm 0.00 in0.0 mm 0.00 in0.0 mm
05:52 AM 19.7°F-6.8°C 2.3°F-16.5°C 46% Calm Calm 4.3 mph6.9 kmh 30.62 in1036.9 mb 0.00 in0.0 mm 0.00 in0.0 mm 0.00 in0.0 mm
05:51 AM 19.8°F-6.8°C 2.4°F-16.4°C 46% Calm Calm 4.3 mph6.9 kmh 30.62 in1036.9 mb 0.00 in0.0 mm 0.00 in0.0 mm 0.00 in0.0 mm
05:49 AM 19.8°F-6.8°C 2.4°F-16.4°C 46% Calm Calm 4.3 mph6.9 kmh 30.62 in1036.9 mb 0.00 in0.0 mm 0.00 in0.0 mm 0.00 in0.0 mm
05:48 AM 19.8°F-6.8°C 2.4°F-16.4°C 46% Calm Calm 4.3 mph6.9 kmh 30.62 in1036.9 mb 0.00 in0.0 mm 0.00 in0.0 mm 0.00 in0.0 mm
05:46 AM 19.8°F-6.8°C 2.4°F-16.4°C 46% Calm Calm 4.3 mph6.9 kmh 30.62 in1036.9 mb 0.00 in0.0 mm 0.00 in0.0 mm 0.00 in0.0 mm
05:45 AM 19.8°F-6.8°C 2.4°F-16.4°C 46% Calm Calm -- 30.62 in1036.9 mb 0.00 in0.0 mm 0.00 in0.0 mm 0.00 in0.0 mm
05:44 AM 19.8°F-6.8°C 2.4°F-16.4°C 46% Calm Calm -- 30.62 in1036.9 mb 0.00 in0.0 mm 0.00 in0.0 mm 0.00 in0.0 mm
05:42 AM 19.8°F-6.8°C 2.4°F-16.4°C 46% Calm Calm -- 30.62 in1036.9 mb 0.00 in0.0 mm 0.00 in0.0 mm 0.00 in0.0 mm
05:41 AM 19.8°F-6.8°C 2.4°F-16.4°C 46% Calm Calm -- 30.62 in1036.9 mb 0.00 in0.0 mm 0.00 in0.0 mm 0.00 in0.0 mm
05:40 AM 19.8°F-6.8°C 2.4°F-16.4°C 46% Calm Calm -- 30.62 in1036.9 mb 0.00 in0.0 mm 0.00 in0.0 mm 0.00 in0.0 mm
05:38 AM 19.8°F-6.8°C 2.4°F-16.4°C 46% Calm Calm -- 30.62 in1036.9 mb 0.00 in0.0 mm 0.00 in0.0 mm 0.00 in0.0 mm
05:37 AM 19.8°F-6.8°C 2.4°F-16.4°C 46% Calm Calm -- 30.62 in1036.9 mb 0.00 in0.0 mm 0.00 in0.0 mm 0.00 in0.0 mm
05:35 AM 19.8°F-6.8°C 2.4°F-16.4°C 46% Calm Calm -- 30.62 in1036.9 mb 0.00 in0.0 mm 0.00 in0.0 mm 0.00 in0.0 mm
05:34 AM 19.8°F-6.8°C 2.4°F-16.4°C 46% Calm Calm -- 30.62 in1036.9 mb 0.00 in0.0 mm 0.00 in0.0 mm 0.00 in0.0 mm
05:33 AM 19.8°F-6.8°C 2.4°F-16.4°C 46% Calm Calm -- 30.62 in1036.9 mb 0.00 in0.0 mm 0.00 in0.0 mm 0.00 in0.0 mm
05:32 AM 19.8°F-6.8°C 2.4°F-16.4°C 46% Calm Calm -- 30.62 in1036.9 mb 0.00 in0.0 mm 0.00 in0.0 mm 0.00 in0.0 mm
05:30 AM 19.8°F-6.8°C 2.4°F-16.4°C 46% Calm Calm -- 30.62 in1036.9 mb 0.00 in0.0 mm 0.00 in0.0 mm 0.00 in0.0 mm
05:28 AM 19.8°F-6.8°C 2.4°F-16.4°C 46% Calm Calm -- 30.62 in1036.9 mb 0.00 in0.0 mm 0.00 in0.0 mm 0.00 in0.0 mm
05:27 AM 19.8°F-6.8°C 2.4°F-16.4°C 46% Calm Calm -- 30.62 in1036.9 mb 0.00 in0.0 mm 0.00 in0.0 mm 0.00 in0.0 mm
05:26 AM 19.8°F-6.8°C 2.4°F-16.4°C 46% Calm Calm -- 30.62 in1036.9 mb 0.00 in0.0 mm 0.00 in0.0 mm 0.00 in0.0 mm
05:24 AM 19.8°F-6.8°C 2.4°F-16.4°C 46% Calm Calm -- 30.62 in1036.9 mb 0.00 in0.0 mm 0.00 in0.0 mm 0.00 in0.0 mm
05:23 AM 19.8°F-6.8°C 2.4°F-16.4°C 46% Calm Calm -- 30.62 in1036.9 mb 0.00 in0.0 mm 0.00 in0.0 mm 0.00 in0.0 mm
05:21 AM 19.8°F-6.8°C 2.4°F-16.4°C 46% Calm Calm -- 30.62 in1036.9 mb 0.00 in0.0 mm 0.00 in0.0 mm 0.00 in0.0 mm
05:20 AM 19.8°F-6.8°C 2.4°F-16.4°C 46% Calm Calm -- 30.62 in1036.9 mb 0.00 in0.0 mm 0.00 in0.0 mm 0.00 in0.0 mm
05:18 AM 19.8°F-6.8°C 2.4°F-16.4°C 46% Calm Calm -- 30.62 in1036.9 mb 0.00 in0.0 mm 0.00 in0.0 mm 0.00 in0.0 mm
05:17 AM 20.0°F-6.7°C 2.6°F-16.3°C 46% Calm Calm -- 30.62 in1036.9 mb 0.00 in0.0 mm 0.00 in0.0 mm 0.00 in0.0 mm
05:16 AM 20.0°F-6.7°C 2.6°F-16.3°C 46% Calm Calm -- 30.62 in1036.9 mb 0.00 in0.0 mm 0.00 in0.0 mm 0.00 in0.0 mm
05:14 AM 20.0°F-6.7°C 2.6°F-16.3°C 46% Calm Calm -- 30.62 in1036.9 mb 0.00 in0.0 mm 0.00 in0.0 mm 0.00 in0.0 mm
05:13 AM 20.0°F-6.7°C 2.6°F-16.3°C 46% Calm Calm -- 30.62 in1036.9 mb 0.00 in0.0 mm 0.00 in0.0 mm 0.00 in0.0 mm
05:11 AM 20.0°F-6.7°C 2.6°F-16.3°C 46% Calm Calm 2.7 mph4.3 kmh 30.62 in1036.9 mb 0.00 in0.0 mm 0.00 in0.0 mm 0.00 in0.0 mm
05:10 AM 20.0°F-6.7°C 2.6°F-16.3°C 46% Calm Calm 3.2 mph5.1 kmh 30.62 in1036.9 mb 0.00 in0.0 mm 0.00 in0.0 mm 0.00 in0.0 mm
05:09 AM 20.0°F-6.7°C 2.6°F-16.3°C 46% Calm Calm 4.8 mph7.7 kmh 30.62 in1036.9 mb 0.00 in0.0 mm 0.00 in0.0 mm 0.00 in0.0 mm
05:08 AM 20.0°F-6.7°C 2.6°F-16.3°C 46% Calm Calm 4.8 mph7.7 kmh 30.62 in1036.9 mb 0.00 in0.0 mm 0.00 in0.0 mm 0.00 in0.0 mm
05:07 AM 19.8°F-6.8°C 2.4°F-16.4°C 46% Calm Calm 4.8 mph7.7 kmh 30.62 in1036.9 mb 0.00 in0.0 mm 0.00 in0.0 mm 0.00 in0.0 mm
05:06 AM 19.8°F-6.8°C 2.4°F-16.4°C 46% Calm Calm 4.8 mph7.7 kmh 30.62 in1036.9 mb 0.00 in0.0 mm 0.00 in0.0 mm 0.00 in0.0 mm
05:04 AM 19.7°F-6.8°C 2.3°F-16.5°C 46% Calm Calm 4.8 mph7.7 kmh 30.62 in1036.9 mb 0.00 in0.0 mm 0.00 in0.0 mm 0.00 in0.0 mm
05:03 AM 19.7°F-6.8°C 2.3°F-16.5°C 46% 2.7 mph WNW4.3 kmh WNW 4.8 mph7.7 kmh 30.62 in1036.9 mb 0.00 in0.0 mm 0.00 in0.0 mm 0.00 in0.0 mm
05:02 AM 19.5°F-6.9°C 2.1°F-16.6°C 46% 4.8 mph WNW7.7 kmh WNW 4.8 mph7.7 kmh 30.62 in1036.9 mb 0.00 in0.0 mm 0.00 in0.0 mm 0.00 in0.0 mm
05:00 AM 19.5°F-6.9°C 2.1°F-16.6°C 46% Calm Calm -- 30.62 in1036.9 mb 0.00 in0.0 mm 0.00 in0.0 mm 0.00 in0.0 mm
04:59 AM 19.7°F-6.8°C 2.3°F-16.5°C 46% Calm Calm -- 30.59 in1035.9 mb 0.00 in0.0 mm 0.00 in0.0 mm 0.00 in0.0 mm
04:57 AM 19.5°F-6.9°C 2.1°F-16.6°C 46% Calm Calm -- 30.59 in1035.9 mb 0.00 in0.0 mm 0.00 in0.0 mm 0.00 in0.0 mm
04:56 AM 19.5°F-6.9°C 2.1°F-16.6°C 46% Calm Calm -- 30.59 in1035.9 mb 0.00 in0.0 mm 0.00 in0.0 mm 0.00 in0.0 mm
04:55 AM 19.7°F-6.8°C 2.3°F-16.5°C 46% Calm Calm -- 30.59 in1035.9 mb 0.00 in0.0 mm 0.00 in0.0 mm 0.00 in0.0 mm
04:53 AM 19.7°F-6.8°C 2.3°F-16.5°C 46% Calm Calm -- 30.59 in1035.9 mb 0.00 in0.0 mm 0.00 in0.0 mm 0.00 in0.0 mm
04:52 AM 19.7°F-6.8°C 2.3°F-16.5°C 46% Calm Calm -- 30.59 in1035.9 mb 0.00 in0.0 mm 0.00 in0.0 mm 0.00 in0.0 mm
04:50 AM 19.7°F-6.8°C 2.3°F-16.5°C 46% Calm Calm -- 30.59 in1035.9 mb 0.00 in0.0 mm 0.00 in0.0 mm 0.00 in0.0 mm
04:49 AM 19.8°F-6.8°C 2.4°F-16.4°C 46% Calm Calm -- 30.59 in1035.9 mb 0.00 in0.0 mm 0.00 in0.0 mm 0.00 in0.0 mm
04:48 AM 19.8°F-6.8°C 2.4°F-16.4°C 46% Calm Calm -- 30.59 in1035.9 mb 0.00 in0.0 mm 0.00 in0.0 mm 0.00 in0.0 mm
04:47 AM 19.8°F-6.8°C 2.4°F-16.4°C 46% Calm Calm -- 30.59 in1035.9 mb 0.00 in0.0 mm 0.00 in0.0 mm 0.00 in0.0 mm
04:45 AM 20.0°F-6.7°C 2.6°F-16.3°C 46% Calm Calm -- 30.59 in1035.9 mb 0.00 in0.0 mm 0.00 in0.0 mm 0.00 in0.0 mm
04:43 AM 20.0°F-6.7°C 2.6°F-16.3°C 46% Calm Calm -- 30.59 in1035.9 mb 0.00 in0.0 mm 0.00 in0.0 mm 0.00 in0.0 mm
04:42 AM 20.0°F-6.7°C 2.6°F-16.3°C 46% Calm Calm -- 30.59 in1035.9 mb 0.00 in0.0 mm 0.00 in0.0 mm 0.00 in0.0 mm
04:41 AM 20.0°F-6.7°C 2.6°F-16.3°C 46% Calm Calm -- 30.59 in1035.9 mb 0.00 in0.0 mm 0.00 in0.0 mm 0.00 in0.0 mm
04:39 AM 20.2°F-6.6°C 2.7°F-16.3°C 46% Calm Calm 2.7 mph4.3 kmh 30.59 in1035.9 mb 0.00 in0.0 mm 0.00 in0.0 mm 0.00 in0.0 mm
04:38 AM 20.2°F-6.6°C 2.7°F-16.3°C 46% Calm Calm 3.8 mph6.1 kmh 30.59 in1035.9 mb 0.00 in0.0 mm 0.00 in0.0 mm 0.00 in0.0 mm
04:36 AM 20.2°F-6.6°C 2.7°F-16.3°C 46% Calm Calm 4.8 mph7.7 kmh 30.59 in1035.9 mb 0.00 in0.0 mm 0.00 in0.0 mm 0.00 in0.0 mm
04:34 AM 20.2°F-6.6°C 2.7°F-16.3°C 46% Calm Calm 4.8 mph7.7 kmh 30.59 in1035.9 mb 0.00 in0.0 mm 0.00 in0.0 mm 0.00 in0.0 mm
04:32 AM 20.2°F-6.6°C 2.7°F-16.3°C 46% Calm Calm 4.8 mph7.7 kmh 30.59 in1035.9 mb 0.00 in0.0 mm 0.00 in0.0 mm 0.00 in0.0 mm
04:31 AM 20.2°F-6.6°C 2.7°F-16.3°C 46% 3.2 mph NNW5.1 kmh NNW 4.8 mph7.7 kmh 30.59 in1035.9 mb 0.00 in0.0 mm 0.00 in0.0 mm 0.00 in0.0 mm
04:29 AM 20.2°F-6.6°C 2.7°F-16.3°C 46% Calm Calm 3.8 mph6.1 kmh 30.59 in1035.9 mb 0.00 in0.0 mm 0.00 in0.0 mm 0.00 in0.0 mm
04:27 AM 20.2°F-6.6°C 2.7°F-16.3°C 46% Calm Calm 3.8 mph6.1 kmh 30.59 in1035.9 mb 0.00 in0.0 mm 0.00 in0.0 mm 0.00 in0.0 mm
04:25 AM 20.2°F-6.6°C 2.7°F-16.3°C 46% Calm Calm 3.8 mph6.1 kmh 30.59 in1035.9 mb 0.00 in0.0 mm 0.00 in0.0 mm 0.00 in0.0 mm
04:24 AM 20.2°F-6.6°C 2.7°F-16.3°C 46% 3.8 mph WNW6.1 kmh WNW 3.8 mph6.1 kmh 30.59 in1035.9 mb 0.00 in0.0 mm 0.00 in0.0 mm 0.00 in0.0 mm
04:22 AM 20.2°F-6.6°C 2.7°F-16.3°C 46% Calm Calm -- 30.59 in1035.9 mb 0.00 in0.0 mm 0.00 in0.0 mm 0.00 in0.0 mm
04:21 AM 20.2°F-6.6°C 2.7°F-16.3°C 46% Calm Calm -- 30.59 in1035.9 mb 0.00 in0.0 mm 0.00 in0.0 mm 0.00 in0.0 mm
04:20 AM 20.2°F-6.6°C 2.7°F-16.3°C 46% Calm Calm -- 30.59 in1035.9 mb 0.00 in0.0 mm 0.00 in0.0 mm 0.00 in0.0 mm
04:18 AM 20.2°F-6.6°C 2.7°F-16.3°C 46% Calm Calm -- 30.59 in1035.9 mb 0.00 in0.0 mm 0.00 in0.0 mm 0.00 in0.0 mm
04:16 AM 20.0°F-6.7°C 2.6°F-16.3°C 46% Calm Calm 3.2 mph5.1 kmh 30.59 in1035.9 mb 0.00 in0.0 mm 0.00 in0.0 mm 0.00 in0.0 mm
04:15 AM 20.0°F-6.7°C 2.6°F-16.3°C 46% Calm Calm 4.3 mph6.9 kmh 30.59 in1035.9 mb 0.00 in0.0 mm 0.00 in0.0 mm 0.00 in0.0 mm
04:14 AM 20.0°F-6.7°C 2.6°F-16.3°C 46% Calm Calm 4.8 mph7.7 kmh 30.59 in1035.9 mb 0.00 in0.0 mm 0.00 in0.0 mm 0.00 in0.0 mm
04:13 AM 19.8°F-6.8°C 2.4°F-16.4°C 46% Calm Calm 4.8 mph7.7 kmh 30.59 in1035.9 mb 0.00 in0.0 mm 0.00 in0.0 mm 0.00 in0.0 mm
04:11 AM 19.8°F-6.8°C 2.4°F-16.4°C 46% Calm Calm 4.8 mph7.7 kmh 30.59 in1035.9 mb 0.00 in0.0 mm 0.00 in0.0 mm 0.00 in0.0 mm
04:10 AM 19.7°F-6.8°C 2.3°F-16.5°C 46% 3.2 mph NNW5.1 kmh NNW 4.8 mph7.7 kmh 30.59 in1035.9 mb 0.00 in0.0 mm 0.00 in0.0 mm 0.00 in0.0 mm
04:08 AM 19.7°F-6.8°C 2.3°F-16.5°C 46% 4.3 mph NNW6.9 kmh NNW 4.8 mph7.7 kmh 30.59 in1035.9 mb 0.00 in0.0 mm 0.00 in0.0 mm 0.00 in0.0 mm
04:07 AM 19.7°F-6.8°C 2.3°F-16.5°C 46% Calm Calm 4.8 mph7.7 kmh 30.59 in1035.9 mb 0.00 in0.0 mm 0.00 in0.0 mm 0.00 in0.0 mm
04:06 AM 19.5°F-6.9°C 2.1°F-16.6°C 46% Calm Calm 4.8 mph7.7 kmh 30.59 in1035.9 mb 0.00 in0.0 mm 0.00 in0.0 mm 0.00 in0.0 mm
04:04 AM 19.5°F-6.9°C 2.1°F-16.6°C 46% Calm Calm 4.8 mph7.7 kmh 30.59 in1035.9 mb 0.00 in0.0 mm 0.00 in0.0 mm 0.00 in0.0 mm
04:03 AM 19.3°F-7.1°C 1.9°F-16.7°C 46% Calm Calm -- 30.59 in1035.9 mb 0.00 in0.0 mm 0.00 in0.0 mm 0.00 in0.0 mm
04:02 AM 19.3°F-7.1°C 1.9°F-16.7°C 46% Calm Calm -- 30.59 in1035.9 mb 0.00 in0.0 mm 0.00 in0.0 mm 0.00 in0.0 mm
04:00 AM 19.3°F-7.1°C 1.9°F-16.7°C 46% Calm Calm -- 30.59 in1035.9 mb 0.00 in0.0 mm 0.00 in0.0 mm 0.00 in0.0 mm
03:59 AM 19.1°F-7.2°C 1.8°F-16.8°C 46% Calm Calm -- 30.59 in1035.9 mb 0.00 in0.0 mm 0.00 in0.0 mm 0.00 in0.0 mm
03:58 AM 19.1°F-7.2°C 1.8°F-16.8°C 46% Calm Calm -- 30.59 in1035.9 mb 0.00 in0.0 mm 0.00 in0.0 mm 0.00 in0.0 mm
03:56 AM 19.1°F-7.2°C 1.8°F-16.8°C 46% Calm Calm -- 30.59 in1035.9 mb 0.00 in0.0 mm 0.00 in0.0 mm 0.00 in0.0 mm
03:54 AM 19.1°F-7.2°C 1.8°F-16.8°C 46% Calm Calm -- 30.59 in1035.9 mb 0.00 in0.0 mm 0.00 in0.0 mm 0.00 in0.0 mm
03:52 AM 19.1°F-7.2°C 1.8°F-16.8°C 46% Calm Calm -- 30.59 in1035.9 mb 0.00 in0.0 mm 0.00 in0.0 mm 0.00 in0.0 mm
03:51 AM 19.1°F-7.2°C 1.8°F-16.8°C 46% Calm Calm -- 30.59 in1035.9 mb 0.00 in0.0 mm 0.00 in0.0 mm 0.00 in0.0 mm
03:49 AM 19.3°F-7.1°C 1.9°F-16.7°C 46% Calm Calm -- 30.59 in1035.9 mb 0.00 in0.0 mm 0.00 in0.0 mm 0.00 in0.0 mm
03:47 AM 19.3°F-7.1°C 1.9°F-16.7°C 46% Calm Calm -- 30.59 in1035.9 mb 0.00 in0.0 mm 0.00 in0.0 mm 0.00 in0.0 mm
03:46 AM 19.3°F-7.1°C 1.9°F-16.7°C 46% Calm Calm -- 30.59 in1035.9 mb 0.00 in0.0 mm 0.00 in0.0 mm 0.00 in0.0 mm
03:45 AM 19.3°F-7.1°C 1.9°F-16.7°C 46% Calm Calm -- 30.59 in1035.9 mb 0.00 in0.0 mm 0.00 in0.0 mm 0.00 in0.0 mm
03:43 AM 19.3°F-7.1°C 1.9°F-16.7°C 46% Calm Calm -- 30.59 in1035.9 mb 0.00 in0.0 mm 0.00 in0.0 mm 0.00 in0.0 mm
03:42 AM 19.3°F-7.1°C 1.9°F-16.7°C 46% Calm Calm -- 30.59 in1035.9 mb 0.00 in0.0 mm 0.00 in0.0 mm 0.00 in0.0 mm
03:41 AM 19.3°F-7.1°C 1.9°F-16.7°C 46% Calm Calm -- 30.59 in1035.9 mb 0.00 in0.0 mm 0.00 in0.0 mm 0.00 in0.0 mm
03:39 AM 19.3°F-7.1°C 1.9°F-16.7°C 46% Calm Calm -- 30.59 in1035.9 mb 0.00 in0.0 mm 0.00 in0.0 mm 0.00 in0.0 mm
03:38 AM 19.3°F-7.1°C 1.9°F-16.7°C 46% Calm Calm -- 30.59 in1035.9 mb 0.00 in0.0 mm 0.00 in0.0 mm 0.00 in0.0 mm
03:36 AM 19.3°F-7.1°C 1.9°F-16.7°C 46% Calm Calm -- 30.59 in1035.9 mb 0.00 in0.0 mm 0.00 in0.0 mm 0.00 in0.0 mm
03:35 AM 19.3°F-7.1°C 1.9°F-16.7°C 46% Calm Calm -- 30.59 in1035.9 mb 0.00 in0.0 mm 0.00 in0.0 mm 0.00 in0.0 mm
03:33 AM 19.5°F-6.9°C 2.1°F-16.6°C 46% Calm Calm -- 30.59 in1035.9 mb 0.00 in0.0 mm 0.00 in0.0 mm 0.00 in0.0 mm
03:32 AM 19.5°F-6.9°C 2.1°F-16.6°C 46% Calm Calm -- 30.59 in1035.9 mb 0.00 in0.0 mm 0.00 in0.0 mm 0.00 in0.0 mm
03:31 AM 19.5°F-6.9°C 2.1°F-16.6°C 46% Calm Calm -- 30.59 in1035.9 mb 0.00 in0.0 mm 0.00 in0.0 mm 0.00 in0.0 mm
03:29 AM 19.5°F-6.9°C 2.1°F-16.6°C 46% Calm Calm -- 30.59 in1035.9 mb 0.00 in0.0 mm 0.00 in0.0 mm 0.00 in0.0 mm
03:28 AM 19.5°F-6.9°C 2.1°F-16.6°C 46% Calm Calm -- 30.59 in1035.9 mb 0.00 in0.0 mm 0.00 in0.0 mm 0.00 in0.0 mm
03:26 AM 19.7°F-6.8°C 2.3°F-16.5°C 46% Calm Calm -- 30.59 in1035.9 mb 0.00 in0.0 mm 0.00 in0.0 mm 0.00 in0.0 mm
03:25 AM 19.7°F-6.8°C 2.3°F-16.5°C 46% Calm Calm -- 30.59 in1035.9 mb 0.00 in0.0 mm 0.00 in0.0 mm 0.00 in0.0 mm
03:24 AM 19.7°F-6.8°C 2.3°F-16.5°C 46% Calm Calm -- 30.59 in1035.9 mb 0.00 in0.0 mm 0.00 in0.0 mm 0.00 in0.0 mm
03:22 AM 19.7°F-6.8°C 2.3°F-16.5°C 46% Calm Calm -- 30.59 in1035.9 mb 0.00 in0.0 mm 0.00 in0.0 mm 0.00 in0.0 mm
03:21 AM 19.7°F-6.8°C 2.3°F-16.5°C 46% Calm Calm -- 30.59 in1035.9 mb 0.00 in0.0 mm 0.00 in0.0 mm 0.00 in0.0 mm
03:20 AM 19.7°F-6.8°C 2.3°F-16.5°C 46% Calm Calm -- 30.59 in1035.9 mb 0.00 in0.0 mm 0.00 in0.0 mm 0.00 in0.0 mm
03:18 AM 19.7°F-6.8°C 2.3°F-16.5°C 46% Calm Calm -- 30.59 in1035.9 mb 0.00 in0.0 mm 0.00 in0.0 mm 0.00 in0.0 mm
03:17 AM 19.7°F-6.8°C 2.3°F-16.5°C 46% Calm Calm -- 30.59 in1035.9 mb 0.00 in0.0 mm 0.00 in0.0 mm 0.00 in0.0 mm
03:15 AM 19.7°F-6.8°C 2.3°F-16.5°C 46% Calm Calm -- 30.59 in1035.9 mb 0.00 in0.0 mm 0.00 in0.0 mm 0.00 in0.0 mm
03:14 AM 19.8°F-6.8°C 2.4°F-16.4°C 46% Calm Calm -- 30.59 in1035.9 mb 0.00 in0.0 mm 0.00 in0.0 mm 0.00 in0.0 mm
03:13 AM 19.8°F-6.8°C 2.4°F-16.4°C 46% Calm Calm -- 30.59 in1035.9 mb 0.00 in0.0 mm 0.00 in0.0 mm 0.00 in0.0 mm
03:11 AM 19.8°F-6.8°C 2.4°F-16.4°C 46% Calm Calm -- 30.59 in1035.9 mb 0.00 in0.0 mm 0.00 in0.0 mm 0.00 in0.0 mm
03:10 AM 19.8°F-6.8°C 2.4°F-16.4°C 46% Calm Calm -- 30.59 in1035.9 mb 0.00 in0.0 mm 0.00 in0.0 mm 0.00 in0.0 mm
03:08 AM 19.8°F-6.8°C 2.4°F-16.4°C 46% Calm Calm -- 30.59 in1035.9 mb 0.00 in0.0 mm 0.00 in0.0 mm 0.00 in0.0 mm
03:07 AM 20.0°F-6.7°C 2.6°F-16.3°C 46% Calm Calm -- 30.59 in1035.9 mb 0.00 in0.0 mm 0.00 in0.0 mm 0.00 in0.0 mm
03:05 AM 20.0°F-6.7°C 2.6°F-16.3°C 46% Calm Calm -- 30.59 in1035.9 mb 0.00 in0.0 mm 0.00 in0.0 mm 0.00 in0.0 mm
03:04 AM 20.0°F-6.7°C 2.6°F-16.3°C 46% Calm Calm -- 30.59 in1035.9 mb 0.00 in0.0 mm 0.00 in0.0 mm 0.00 in0.0 mm
03:03 AM 20.2°F-6.6°C 2.7°F-16.3°C 46% Calm Calm -- 30.59 in1035.9 mb 0.00 in0.0 mm 0.00 in0.0 mm 0.00 in0.0 mm
03:01 AM 20.2°F-6.6°C 2.7°F-16.3°C 46% Calm Calm -- 30.59 in1035.9 mb 0.00 in0.0 mm 0.00 in0.0 mm 0.00 in0.0 mm
03:00 AM 20.2°F-6.6°C 2.7°F-16.3°C 46% Calm Calm -- 30.59 in1035.9 mb 0.00 in0.0 mm 0.00 in0.0 mm 0.00 in0.0 mm
02:58 AM 20.2°F-6.6°C 2.7°F-16.3°C 46% Calm Calm -- 30.59 in1035.9 mb 0.00 in0.0 mm 0.00 in0.0 mm 0.00 in0.0 mm
02:57 AM 20.2°F-6.6°C 2.7°F-16.3°C 46% Calm Calm -- 30.59 in1035.9 mb 0.00 in0.0 mm 0.00 in0.0 mm 0.00 in0.0 mm
02:56 AM 20.2°F-6.6°C 2.7°F-16.3°C 46% Calm Calm -- 30.59 in1035.9 mb 0.00 in0.0 mm 0.00 in0.0 mm 0.00 in0.0 mm
02:54 AM 20.4°F-6.4°C 2.4°F-16.4°C 45% Calm Calm -- 30.59 in1035.9 mb 0.00 in0.0 mm 0.00 in0.0 mm 0.00 in0.0 mm
02:53 AM 20.4°F-6.4°C 2.4°F-16.4°C 45% Calm Calm 4.3 mph6.9 kmh 30.59 in1035.9 mb 0.00 in0.0 mm 0.00 in0.0 mm 0.00 in0.0 mm
02:51 AM 20.4°F-6.4°C 2.4°F-16.4°C 45% Calm Calm 4.3 mph6.9 kmh 30.59 in1035.9 mb 0.00 in0.0 mm 0.00 in0.0 mm 0.00 in0.0 mm
02:50 AM 20.4°F-6.4°C 2.4°F-16.4°C 45% Calm Calm 4.3 mph6.9 kmh 30.59 in1035.9 mb 0.00 in0.0 mm 0.00 in0.0 mm 0.00 in0.0 mm
02:49 AM 20.6°F-6.3°C 2.6°F-16.3°C 45% Calm Calm 4.3 mph6.9 kmh 30.59 in1035.9 mb 0.00 in0.0 mm 0.00 in0.0 mm 0.00 in0.0 mm
02:48 AM 20.6°F-6.3°C 2.6°F-16.3°C 45% Calm Calm 4.3 mph6.9 kmh 30.59 in1035.9 mb 0.00 in0.0 mm 0.00 in0.0 mm 0.00 in0.0 mm
02:46 AM 20.6°F-6.3°C 2.6°F-16.3°C 45% 3.2 mph NNW5.1 kmh NNW 4.3 mph6.9 kmh 30.59 in1035.9 mb 0.00 in0.0 mm 0.00 in0.0 mm 0.00 in0.0 mm
02:44 AM 20.6°F-6.3°C 2.6°F-16.3°C 45% Calm Calm 4.8 mph7.7 kmh 30.59 in1035.9 mb 0.00 in0.0 mm 0.00 in0.0 mm 0.00 in0.0 mm
02:43 AM 20.6°F-6.3°C 2.6°F-16.3°C 45% 3.2 mph NNW5.1 kmh NNW 4.8 mph7.7 kmh 30.59 in1035.9 mb 0.00 in0.0 mm 0.00 in0.0 mm 0.00 in0.0 mm
02:42 AM 20.6°F-6.3°C 2.6°F-16.3°C 45% 3.8 mph NW6.1 kmh NW 5.9 mph9.5 kmh 30.59 in1035.9 mb 0.00 in0.0 mm 0.00 in0.0 mm 0.00 in0.0 mm
02:40 AM 20.6°F-6.3°C 2.6°F-16.3°C 45% Calm Calm 7.0 mph11.3 kmh 30.59 in1035.9 mb 0.00 in0.0 mm 0.00 in0.0 mm 0.00 in0.0 mm
02:39 AM 20.6°F-6.3°C 2.6°F-16.3°C 45% 3.8 mph NW6.1 kmh NW 7.0 mph11.3 kmh 30.59 in1035.9 mb 0.00 in0.0 mm 0.00 in0.0 mm 0.00 in0.0 mm
02:37 AM 20.6°F-6.3°C 2.6°F-16.3°C 45% 4.8 mph NW7.7 kmh NW 7.0 mph11.3 kmh 30.59 in1035.9 mb 0.00 in0.0 mm 0.00 in0.0 mm 0.00 in0.0 mm
02:36 AM 20.6°F-6.3°C 2.6°F-16.3°C 45% 3.8 mph NNW6.1 kmh NNW 7.0 mph11.3 kmh 30.59 in1035.9 mb 0.00 in0.0 mm 0.00 in0.0 mm 0.00 in0.0 mm
02:35 AM 20.6°F-6.3°C 2.6°F-16.3°C 45% 3.2 mph N5.1 kmh N 7.0 mph11.3 kmh 30.59 in1035.9 mb 0.00 in0.0 mm 0.00 in0.0 mm 0.00 in0.0 mm
02:34 AM 20.6°F-6.3°C 2.6°F-16.3°C 45% Calm Calm 7.0 mph11.3 kmh 30.59 in1035.9 mb 0.00 in0.0 mm 0.00 in0.0 mm 0.00 in0.0 mm
02:33 AM 20.6°F-6.3°C 2.6°F-16.3°C 45% Calm Calm 7.0 mph11.3 kmh 30.59 in1035.9 mb 0.00 in0.0 mm 0.00 in0.0 mm 0.00 in0.0 mm
02:32 AM 20.6°F-6.3°C 2.6°F-16.3°C 45% 4.3 mph NNW6.9 kmh NNW 6.4 mph10.3 kmh 30.59 in1035.9 mb 0.00 in0.0 mm 0.00 in0.0 mm 0.00 in0.0 mm
02:30 AM 20.6°F-6.3°C 2.6°F-16.3°C 45% 5.4 mph NNW8.7 kmh NNW 7.5 mph12.1 kmh 30.59 in1035.9 mb 0.00 in0.0 mm 0.00 in0.0 mm 0.00 in0.0 mm
02:29 AM 20.6°F-6.3°C 2.6°F-16.3°C 45% 3.8 mph NNW6.1 kmh NNW 7.5 mph12.1 kmh 30.59 in1035.9 mb 0.00 in0.0 mm 0.00 in0.0 mm 0.00 in0.0 mm
02:28 AM 20.6°F-6.3°C 2.6°F-16.3°C 45% 3.8 mph NNW6.1 kmh NNW 7.5 mph12.1 kmh 30.59 in1035.9 mb 0.00 in0.0 mm 0.00 in0.0 mm 0.00 in0.0 mm
02:27 AM 20.6°F-6.3°C 2.6°F-16.3°C 45% 3.8 mph NNW6.1 kmh NNW 7.5 mph12.1 kmh 30.59 in1035.9 mb 0.00 in0.0 mm 0.00 in0.0 mm 0.00 in0.0 mm
02:25 AM 20.7°F-6.3°C 2.8°F-16.2°C 45% 3.8 mph NW6.1 kmh NW 7.5 mph12.1 kmh 30.59 in1035.9 mb 0.00 in0.0 mm 0.00 in0.0 mm 0.00 in0.0 mm
02:23 AM 20.7°F-6.3°C 2.8°F-16.2°C 45% 4.3 mph NNW6.9 kmh NNW 7.0 mph11.3 kmh 30.59 in1035.9 mb 0.00 in0.0 mm 0.00 in0.0 mm 0.00 in0.0 mm
02:21 AM 20.7°F-6.3°C 2.8°F-16.2°C 45% 4.3 mph NW6.9 kmh NW 7.0 mph11.3 kmh 30.59 in1035.9 mb 0.00 in0.0 mm 0.00 in0.0 mm 0.00 in0.0 mm
02:19 AM 20.7°F-6.3°C 2.8°F-16.2°C 45% 3.8 mph NNW6.1 kmh NNW 7.0 mph11.3 kmh 30.59 in1035.9 mb 0.00 in0.0 mm 0.00 in0.0 mm 0.00 in0.0 mm
02:18 AM 20.7°F-6.3°C 2.8°F-16.2°C 45% 7.0 mph NNW11.3 kmh NNW 7.0 mph11.3 kmh 30.59 in1035.9 mb 0.00 in0.0 mm 0.00 in0.0 mm 0.00 in0.0 mm
02:16 AM 20.7°F-6.3°C 2.8°F-16.2°C 45% 3.2 mph NNW5.1 kmh NNW 7.0 mph11.3 kmh 30.59 in1035.9 mb 0.00 in0.0 mm 0.00 in0.0 mm 0.00 in0.0 mm
02:14 AM 20.7°F-6.3°C 2.8°F-16.2°C 45% 3.8 mph NW6.1 kmh NW 7.0 mph11.3 kmh 30.59 in1035.9 mb 0.00 in0.0 mm 0.00 in0.0 mm 0.00 in0.0 mm
02:12 AM 20.7°F-6.3°C 2.8°F-16.2°C 45% 4.8 mph NNW7.7 kmh NNW 7.0 mph11.3 kmh 30.59 in1035.9 mb 0.00 in0.0 mm 0.00 in0.0 mm 0.00 in0.0 mm
02:11 AM 20.7°F-6.3°C 2.8°F-16.2°C 45% 4.8 mph NW7.7 kmh NW 4.8 mph7.7 kmh 30.59 in1035.9 mb 0.00 in0.0 mm 0.00 in0.0 mm 0.00 in0.0 mm
02:09 AM 20.7°F-6.3°C 2.8°F-16.2°C 45% 3.2 mph NW5.1 kmh NW 4.8 mph7.7 kmh 30.59 in1035.9 mb 0.00 in0.0 mm 0.00 in0.0 mm 0.00 in0.0 mm
02:08 AM 20.7°F-6.3°C 2.8°F-16.2°C 45% 3.2 mph NW5.1 kmh NW 4.8 mph7.7 kmh 30.59 in1035.9 mb 0.00 in0.0 mm 0.00 in0.0 mm 0.00 in0.0 mm
02:07 AM 20.7°F-6.3°C 2.8°F-16.2°C 45% Calm Calm 5.9 mph9.5 kmh 30.59 in1035.9 mb 0.00 in0.0 mm 0.00 in0.0 mm 0.00 in0.0 mm
02:05 AM 20.7°F-6.3°C 2.8°F-16.2°C 45% Calm Calm 5.9 mph9.5 kmh 30.59 in1035.9 mb 0.00 in0.0 mm 0.00 in0.0 mm 0.00 in0.0 mm
02:04 AM 20.7°F-6.3°C 2.8°F-16.2°C 45% 4.8 mph NW7.7 kmh NW 5.9 mph9.5 kmh 30.59 in1035.9 mb 0.00 in0.0 mm 0.00 in0.0 mm 0.00 in0.0 mm
02:03 AM 20.7°F-6.3°C 2.8°F-16.2°C 45% 2.7 mph NW4.3 kmh NW 5.9 mph9.5 kmh 30.59 in1035.9 mb 0.00 in0.0 mm 0.00 in0.0 mm 0.00 in0.0 mm
02:02 AM 20.7°F-6.3°C 2.8°F-16.2°C 45% Calm Calm 5.9 mph9.5 kmh 30.59 in1035.9 mb 0.00 in0.0 mm 0.00 in0.0 mm 0.00 in0.0 mm
02:00 AM 20.9°F-6.2°C 2.9°F-16.2°C 45% Calm Calm -- 30.59 in1035.9 mb 0.00 in0.0 mm 0.00 in0.0 mm 0.00 in0.0 mm
01:58 AM 20.9°F-6.2°C 2.9°F-16.2°C 45% Calm Calm -- 30.59 in1035.9 mb 0.00 in0.0 mm 0.00 in0.0 mm 0.00 in0.0 mm
01:57 AM 20.9°F-6.2°C 2.9°F-16.2°C 45% Calm Calm -- 30.59 in1035.9 mb 0.00 in0.0 mm 0.00 in0.0 mm 0.00 in0.0 mm
01:55 AM 20.9°F-6.2°C 2.9°F-16.2°C 45% Calm Calm 3.8 mph6.1 kmh 30.59 in1035.9 mb 0.00 in0.0 mm 0.00 in0.0 mm 0.00 in0.0 mm
01:54 AM 20.9°F-6.2°C 2.9°F-16.2°C 45% Calm Calm 3.8 mph6.1 kmh 30.59 in1035.9 mb 0.00 in0.0 mm 0.00 in0.0 mm 0.00 in0.0 mm
01:53 AM 20.9°F-6.2°C 2.9°F-16.2°C 45% Calm Calm 3.8 mph6.1 kmh 30.59 in1035.9 mb 0.00 in0.0 mm 0.00 in0.0 mm 0.00 in0.0 mm
01:51 AM 20.9°F-6.2°C 2.9°F-16.2°C 45% Calm Calm 3.8 mph6.1 kmh 30.59 in1035.9 mb 0.00 in0.0 mm 0.00 in0.0 mm 0.00 in0.0 mm
01:50 AM 21.1°F-6.1°C 3.1°F-16.1°C 45% Calm Calm 3.8 mph6.1 kmh 30.59 in1035.9 mb 0.00 in0.0 mm 0.00 in0.0 mm 0.00 in0.0 mm
01:48 AM 21.1°F-6.1°C 3.1°F-16.1°C 45% 2.7 mph NW4.3 kmh NW 3.8 mph6.1 kmh 30.59 in1035.9 mb 0.00 in0.0 mm 0.00 in0.0 mm 0.00 in0.0 mm
01:47 AM 21.1°F-6.1°C 3.1°F-16.1°C 45% Calm Calm 3.2 mph5.1 kmh 30.59 in1035.9 mb 0.00 in0.0 mm 0.00 in0.0 mm 0.00 in0.0 mm
01:46 AM 21.1°F-6.1°C 3.1°F-16.1°C 45% Calm Calm 4.8 mph7.7 kmh 30.59 in1035.9 mb 0.00 in0.0 mm 0.00 in0.0 mm 0.00 in0.0 mm
01:45 AM 21.3°F-5.9°C 3.3°F-15.9°C 45% Calm Calm 4.8 mph7.7 kmh 30.59 in1035.9 mb 0.00 in0.0 mm 0.00 in0.0 mm 0.00 in0.0 mm
01:43 AM 21.3°F-5.9°C 3.3°F-15.9°C 45% Calm Calm 4.8 mph7.7 kmh 30.59 in1035.9 mb 0.00 in0.0 mm 0.00 in0.0 mm 0.00 in0.0 mm
01:42 AM 21.3°F-5.9°C 3.3°F-15.9°C 45% Calm Calm 4.8 mph7.7 kmh 30.59 in1035.9 mb 0.00 in0.0 mm 0.00 in0.0 mm 0.00 in0.0 mm
01:40 AM 21.3°F-5.9°C 3.3°F-15.9°C 45% Calm Calm 4.8 mph7.7 kmh 30.59 in1035.9 mb 0.00 in0.0 mm 0.00 in0.0 mm 0.00 in0.0 mm
01:39 AM 21.5°F-5.8°C 3.4°F-15.9°C 45% 4.3 mph NW6.9 kmh NW 4.8 mph7.7 kmh 30.59 in1035.9 mb 0.00 in0.0 mm 0.00 in0.0 mm 0.00 in0.0 mm
01:38 AM 21.5°F-5.8°C 3.4°F-15.9°C 45% 4.3 mph N6.9 kmh N 4.8 mph7.7 kmh 30.59 in1035.9 mb 0.00 in0.0 mm 0.00 in0.0 mm 0.00 in0.0 mm
01:36 AM 21.5°F-5.8°C 3.4°F-15.9°C 45% 2.7 mph N4.3 kmh N 4.8 mph7.7 kmh 30.59 in1035.9 mb 0.00 in0.0 mm 0.00 in0.0 mm 0.00 in0.0 mm
01:34 AM 21.5°F-5.8°C 3.4°F-15.9°C 45% 4.3 mph NNW6.9 kmh NNW 6.4 mph10.3 kmh 30.59 in1035.9 mb 0.00 in0.0 mm 0.00 in0.0 mm 0.00 in0.0 mm
01:30 AM 21.5°F-5.8°C 3.4°F-15.9°C 45% Calm Calm 6.4 mph10.3 kmh 30.59 in1035.9 mb 0.00 in0.0 mm 0.00 in0.0 mm 0.00 in0.0 mm
01:29 AM 21.5°F-5.8°C 3.4°F-15.9°C 45% 3.2 mph 5.1 kmh 7.0 mph11.3 kmh 30.56 in1034.9 mb 0.00 in0.0 mm 0.00 in0.0 mm 0.00 in0.0 mm
01:27 AM 21.5°F-5.8°C 3.4°F-15.9°C 45% Calm Calm 7.0 mph11.3 kmh 30.56 in1034.9 mb 0.00 in0.0 mm 0.00 in0.0 mm 0.00 in0.0 mm
01:26 AM 21.5°F-5.8°C 3.4°F-15.9°C 45% 4.8 mph N7.7 kmh N 7.0 mph11.3 kmh 30.56 in1034.9 mb 0.00 in0.0 mm 0.00 in0.0 mm 0.00 in0.0 mm
01:25 AM 21.5°F-5.8°C 3.4°F-15.9°C 45% 3.8 mph N6.1 kmh N 7.0 mph11.3 kmh 30.56 in1034.9 mb 0.00 in0.0 mm 0.00 in0.0 mm 0.00 in0.0 mm
01:23 AM 21.6°F-5.8°C 3.6°F-15.8°C 45% 4.3 mph NNW6.9 kmh NNW 7.0 mph11.3 kmh 30.56 in1034.9 mb 0.00 in0.0 mm 0.00 in0.0 mm 0.00 in0.0 mm
01:22 AM 21.6°F-5.8°C 3.6°F-15.8°C 45% Calm Calm 7.0 mph11.3 kmh 30.56 in1034.9 mb 0.00 in0.0 mm 0.00 in0.0 mm 0.00 in0.0 mm
01:20 AM 21.6°F-5.8°C 3.6°F-15.8°C 45% Calm Calm 7.0 mph11.3 kmh 30.56 in1034.9 mb 0.00 in0.0 mm 0.00 in0.0 mm 0.00 in0.0 mm
01:19 AM 21.6°F-5.8°C 3.6°F-15.8°C 45% Calm Calm 7.0 mph11.3 kmh 30.56 in1034.9 mb 0.00 in0.0 mm 0.00 in0.0 mm 0.00 in0.0 mm
01:18 AM 21.6°F-5.8°C 3.6°F-15.8°C 45% 5.9 mph N9.5 kmh N 5.9 mph9.5 kmh 30.56 in1034.9 mb 0.00 in0.0 mm 0.00 in0.0 mm 0.00 in0.0 mm
01:16 AM 21.6°F-5.8°C 3.6°F-15.8°C 45% Calm Calm 4.8 mph7.7 kmh 30.56 in1034.9 mb 0.00 in0.0 mm 0.00 in0.0 mm 0.00 in0.0 mm
01:15 AM 21.6°F-5.8°C 3.6°F-15.8°C 45% Calm Calm 7.0 mph11.3 kmh 30.56 in1034.9 mb 0.00 in0.0 mm 0.00 in0.0 mm 0.00 in0.0 mm
01:13 AM 21.6°F-5.8°C 3.6°F-15.8°C 45% 3.8 mph NNW6.1 kmh NNW 7.0 mph11.3 kmh 30.59 in1035.9 mb 0.00 in0.0 mm 0.00 in0.0 mm 0.00 in0.0 mm
01:11 AM 21.6°F-5.8°C 3.6°F-15.8°C 45% 4.3 mph NNW6.9 kmh NNW 7.0 mph11.3 kmh 30.59 in1035.9 mb 0.00 in0.0 mm 0.00 in0.0 mm 0.00 in0.0 mm
01:09 AM 21.6°F-5.8°C 3.6°F-15.8°C 45% 4.3 mph NNW6.9 kmh NNW 7.0 mph11.3 kmh 30.59 in1035.9 mb 0.00 in0.0 mm 0.00 in0.0 mm 0.00 in0.0 mm
01:08 AM 21.6°F-5.8°C 3.6°F-15.8°C 45% 7.0 mph NNW11.3 kmh NNW 7.0 mph11.3 kmh 30.59 in1035.9 mb 0.00 in0.0 mm 0.00 in0.0 mm 0.00 in0.0 mm
01:07 AM 21.6°F-5.8°C 3.6°F-15.8°C 45% 3.8 mph NNW6.1 kmh NNW 5.4 mph8.7 kmh 30.59 in1035.9 mb 0.00 in0.0 mm 0.00 in0.0 mm 0.00 in0.0 mm
01:05 AM 21.6°F-5.8°C 3.6°F-15.8°C 45% Calm Calm 4.8 mph7.7 kmh 30.59 in1035.9 mb 0.00 in0.0 mm 0.00 in0.0 mm 0.00 in0.0 mm
01:04 AM 21.8°F-5.7°C 3.8°F-15.7°C 45% Calm Calm 4.8 mph7.7 kmh 30.59 in1035.9 mb 0.00 in0.0 mm 0.00 in0.0 mm 0.00 in0.0 mm
01:02 AM 21.8°F-5.7°C 3.8°F-15.7°C 45% Calm Calm 4.8 mph7.7 kmh 30.59 in1035.9 mb 0.00 in0.0 mm 0.00 in0.0 mm 0.00 in0.0 mm
01:01 AM 21.8°F-5.7°C 3.8°F-15.7°C 45% Calm Calm 4.8 mph7.7 kmh 30.59 in1035.9 mb 0.00 in0.0 mm 0.00 in0.0 mm 0.00 in0.0 mm
01:00 AM 21.8°F-5.7°C 3.8°F-15.7°C 45% Calm Calm 4.8 mph7.7 kmh 30.59 in1035.9 mb 0.00 in0.0 mm 0.00 in0.0 mm 0.00 in0.0 mm
12:58 AM 21.8°F-5.7°C 3.8°F-15.7°C 45% Calm Calm 4.8 mph7.7 kmh 30.56 in1034.9 mb 0.00 in0.0 mm 0.00 in0.0 mm 0.00 in0.0 mm
12:57 AM 22.0°F-5.6°C 3.9°F-15.6°C 45% Calm Calm 4.8 mph7.7 kmh 30.56 in1034.9 mb 0.00 in0.0 mm 0.00 in0.0 mm 0.00 in0.0 mm
12:55 AM 22.0°F-5.6°C 3.9°F-15.6°C 45% Calm Calm 4.8 mph7.7 kmh 30.56 in1034.9 mb 0.00 in0.0 mm 0.00 in0.0 mm 0.00 in0.0 mm
12:54 AM 22.0°F-5.6°C 3.9°F-15.6°C 45% 3.2 mph N5.1 kmh N 4.8 mph7.7 kmh 30.56 in1034.9 mb 0.00 in0.0 mm 0.00 in0.0 mm 0.00 in0.0 mm
12:52 AM 22.0°F-5.6°C 3.9°F-15.6°C 45% Calm Calm 4.8 mph7.7 kmh 30.56 in1034.9 mb 0.00 in0.0 mm 0.00 in0.0 mm 0.00 in0.0 mm
12:51 AM 22.2°F-5.4°C 4.1°F-15.5°C 45% Calm Calm 4.8 mph7.7 kmh 30.56 in1034.9 mb 0.00 in0.0 mm 0.00 in0.0 mm 0.00 in0.0 mm
12:50 AM 22.2°F-5.4°C 4.1°F-15.5°C 45% Calm Calm 5.9 mph9.5 kmh 30.56 in1034.9 mb 0.00 in0.0 mm 0.00 in0.0 mm 0.00 in0.0 mm
12:49 AM 22.2°F-5.4°C 4.1°F-15.5°C 45% Calm Calm 5.9 mph9.5 kmh 30.56 in1034.9 mb 0.00 in0.0 mm 0.00 in0.0 mm 0.00 in0.0 mm
12:48 AM 22.2°F-5.4°C 4.1°F-15.5°C 45% 2.7 mph NNW4.3 kmh NNW 5.9 mph9.5 kmh 30.56 in1034.9 mb 0.00 in0.0 mm 0.00 in0.0 mm 0.00 in0.0 mm
12:47 AM 22.4°F-5.3°C 4.3°F-15.4°C 45% 3.2 mph NNW5.1 kmh NNW 5.9 mph9.5 kmh 30.56 in1034.9 mb 0.00 in0.0 mm 0.00 in0.0 mm 0.00 in0.0 mm
12:45 AM 22.4°F-5.3°C 4.3°F-15.4°C 45% 3.2 mph NNW5.1 kmh NNW 5.9 mph9.5 kmh 30.56 in1034.9 mb 0.00 in0.0 mm 0.00 in0.0 mm 0.00 in0.0 mm
12:44 AM 22.4°F-5.3°C 4.3°F-15.4°C 45% 3.2 mph NNW5.1 kmh NNW 5.9 mph9.5 kmh 30.56 in1034.9 mb 0.00 in0.0 mm 0.00 in0.0 mm 0.00 in0.0 mm
12:43 AM 22.4°F-5.3°C 4.3°F-15.4°C 45% 3.8 mph NW6.1 kmh NW 6.4 mph10.3 kmh 30.56 in1034.9 mb 0.00 in0.0 mm 0.00 in0.0 mm 0.00 in0.0 mm
12:41 AM 22.4°F-5.3°C 4.3°F-15.4°C 45% Calm Calm 6.4 mph10.3 kmh 30.56 in1034.9 mb 0.00 in0.0 mm 0.00 in0.0 mm 0.00 in0.0 mm
12:40 AM 22.5°F-5.3°C 4.4°F-15.3°C 45% Calm Calm 6.4 mph10.3 kmh 30.56 in1034.9 mb 0.00 in0.0 mm 0.00 in0.0 mm 0.00 in0.0 mm
12:38 AM 22.5°F-5.3°C 4.4°F-15.3°C 45% 3.2 mph 5.1 kmh 6.4 mph10.3 kmh 30.56 in1034.9 mb 0.00 in0.0 mm 0.00 in0.0 mm 0.00 in0.0 mm
12:37 AM 22.5°F-5.3°C 4.4°F-15.3°C 45% Calm Calm 6.4 mph10.3 kmh 30.56 in1034.9 mb 0.00 in0.0 mm 0.00 in0.0 mm 0.00 in0.0 mm
12:36 AM 22.5°F-5.3°C 4.4°F-15.3°C 45% 3.2 mph NNE5.1 kmh NNE 4.8 mph7.7 kmh 30.56 in1034.9 mb 0.00 in0.0 mm 0.00 in0.0 mm 0.00 in0.0 mm
12:34 AM 22.5°F-5.3°C 4.4°F-15.3°C 45% 4.8 mph NW7.7 kmh NW 4.8 mph7.7 kmh 30.56 in1034.9 mb 0.00 in0.0 mm 0.00 in0.0 mm 0.00 in0.0 mm
12:33 AM 22.5°F-5.3°C 4.4°F-15.3°C 45% 2.7 mph NNW4.3 kmh NNW 4.8 mph7.7 kmh 30.56 in1034.9 mb 0.00 in0.0 mm 0.00 in0.0 mm 0.00 in0.0 mm
12:31 AM 22.5°F-5.3°C 4.4°F-15.3°C 45% 3.8 mph NNW6.1 kmh NNW 7.5 mph12.1 kmh 30.56 in1034.9 mb 0.00 in0.0 mm 0.00 in0.0 mm 0.00 in0.0 mm
12:30 AM 22.7°F-5.2°C 4.6°F-15.2°C 45% 3.8 mph NNW6.1 kmh NNW 7.5 mph12.1 kmh 30.56 in1034.9 mb 0.00 in0.0 mm 0.00 in0.0 mm 0.00 in0.0 mm
12:29 AM 22.7°F-5.2°C 4.6°F-15.2°C 45% Calm Calm 7.5 mph12.1 kmh 30.56 in1034.9 mb 0.00 in0.0 mm 0.00 in0.0 mm 0.00 in0.0 mm
12:28 AM 22.7°F-5.2°C 4.6°F-15.2°C 45% Calm Calm 7.5 mph12.1 kmh 30.56 in1034.9 mb 0.00 in0.0 mm 0.00 in0.0 mm 0.00 in0.0 mm
12:26 AM 22.7°F-5.2°C 4.6°F-15.2°C 45% 3.2 mph NNW5.1 kmh NNW 7.5 mph12.1 kmh 30.56 in1034.9 mb 0.00 in0.0 mm 0.00 in0.0 mm 0.00 in0.0 mm
12:24 AM 22.7°F-5.2°C 4.6°F-15.2°C 45% 4.3 mph N6.9 kmh N 7.5 mph12.1 kmh 30.56 in1034.9 mb 0.00 in0.0 mm 0.00 in0.0 mm 0.00 in0.0 mm
12:23 AM 22.7°F-5.2°C 4.6°F-15.2°C 45% 3.8 mph NW6.1 kmh NW 7.5 mph12.1 kmh 30.56 in1034.9 mb 0.00 in0.0 mm 0.00 in0.0 mm 0.00 in0.0 mm
12:22 AM 22.7°F-5.2°C 4.6°F-15.2°C 45% 4.8 mph NW7.7 kmh NW 7.5 mph12.1 kmh 30.56 in1034.9 mb 0.00 in0.0 mm 0.00 in0.0 mm 0.00 in0.0 mm
12:20 AM 22.7°F-5.2°C 4.6°F-15.2°C 45% 7.0 mph NW11.3 kmh NW 7.0 mph11.3 kmh 30.56 in1034.9 mb 0.00 in0.0 mm 0.00 in0.0 mm 0.00 in0.0 mm
12:19 AM 22.9°F-5.1°C 4.8°F-15.1°C 45% Calm Calm 7.5 mph12.1 kmh 30.56 in1034.9 mb 0.00 in0.0 mm 0.00 in0.0 mm 0.00 in0.0 mm
12:17 AM 22.9°F-5.1°C 4.8°F-15.1°C 45% Calm Calm 7.5 mph12.1 kmh 30.56 in1034.9 mb 0.00 in0.0 mm 0.00 in0.0 mm 0.00 in0.0 mm
12:16 AM 22.9°F-5.1°C 4.8°F-15.1°C 45% 4.3 mph N6.9 kmh N 7.5 mph12.1 kmh 30.56 in1034.9 mb 0.00 in0.0 mm 0.00 in0.0 mm 0.00 in0.0 mm
12:15 AM 22.9°F-5.1°C 4.8°F-15.1°C 45% 4.8 mph N7.7 kmh N 7.5 mph12.1 kmh 30.56 in1034.9 mb 0.00 in0.0 mm 0.00 in0.0 mm 0.00 in0.0 mm
12:13 AM 22.9°F-5.1°C 4.8°F-15.1°C 45% Calm Calm 7.5 mph12.1 kmh 30.56 in1034.9 mb 0.00 in0.0 mm 0.00 in0.0 mm 0.00 in0.0 mm
12:12 AM 22.9°F-5.1°C 4.8°F-15.1°C 45% 3.8 mph N6.1 kmh N 6.4 mph10.3 kmh 30.56 in1034.9 mb 0.00 in0.0 mm 0.00 in0.0 mm 0.00 in0.0 mm
12:10 AM 23.1°F-4.9°C 4.9°F-15.1°C 45% Calm Calm 6.4 mph10.3 kmh 30.56 in1034.9 mb 0.00 in0.0 mm 0.00 in0.0 mm 0.00 in0.0 mm
12:08 AM 23.1°F-4.9°C 4.9°F-15.1°C 45% 4.3 mph NNW6.9 kmh NNW 6.4 mph10.3 kmh 30.56 in1034.9 mb 0.00 in0.0 mm 0.00 in0.0 mm 0.00 in0.0 mm
12:06 AM 23.1°F-4.9°C 4.9°F-15.1°C 45% 3.2 mph NW5.1 kmh NW 6.4 mph10.3 kmh 30.56 in1034.9 mb 0.00 in0.0 mm 0.00 in0.0 mm 0.00 in0.0 mm
12:05 AM 23.1°F-4.9°C 4.9°F-15.1°C 45% 4.3 mph WNW6.9 kmh WNW 6.4 mph10.3 kmh 30.56 in1034.9 mb 0.00 in0.0 mm 0.00 in0.0 mm 0.00 in0.0 mm
12:03 AM 23.1°F-4.9°C 4.9°F-15.1°C 45% Calm Calm 4.8 mph7.7 kmh 30.56 in1034.9 mb 0.00 in0.0 mm 0.00 in0.0 mm 0.00 in0.0 mm
12:01 AM 23.1°F-4.9°C 4.9°F-15.1°C 45% Calm Calm 6.4 mph10.3 kmh 30.56 in1034.9 mb 0.00 in0.0 mm 0.00 in0.0 mm 0.00 in0.0 mm